DTA653 LPPT-FNLU
Flight info
| Callsign | DTA653 |
|---|---|
| Flight time | 6h 48m |
| Altitude | 35000 |
| Route | DUZOP DCT AMSEL UR722 SAK UW900 OZT UJ744 BAGBO UM629 ARGAM/N0493F370 UM629 KELEX/N0496F360 UA608 TYE/N0492F370 UZ136 KINBU UR983 GAPAK UA400 VNA |
| Aircraft | B77W/H-SDE1E2E3FGHIJ2J3J4J5M1RWXY/LB1D1 |
Departure
| Time | 2026-04-25 22:51 |
|---|---|
| Airport | Lisbon Humberto Delgado Airport (LPPT) |
Arrival
| Time | 2026-04-26 05:39 |
|---|---|
| Airport | Quatro de Fevereiro International Airport (FNLU) |
| Time | Latitude | Longitude | Altitude | Speed | Heading |
|---|---|---|---|---|---|
| 2026-04-25 22:16 | 38.77013 | -9.13614 | 353 ft | 0 kts | 258° |
| 2026-04-25 22:34 | 38.77015 | -9.13603 | 361 ft | 4 kts | 258° |
| 2026-04-25 22:34 | 38.77021 | -9.13569 | 359 ft | 4 kts | 258° |
| 2026-04-25 22:35 | 38.77027 | -9.13542 | 356 ft | 4 kts | 228° |
| 2026-04-25 22:35 | 38.77046 | -9.13531 | 362 ft | 4 kts | 171° |
| 2026-04-25 22:35 | 38.77068 | -9.13537 | 362 ft | 1 kts | 168° |
| 2026-04-25 22:35 | 38.77069 | -9.13537 | 362 ft | 0 kts | 168° |
| 2026-04-25 22:36 | 38.77068 | -9.13537 | 362 ft | 0 kts | 168° |
| 2026-04-25 22:44 | 38.77039 | -9.13529 | 354 ft | 11 kts | 167° |
| 2026-04-25 22:44 | 38.76959 | -9.13507 | 360 ft | 12 kts | 168° |
| 2026-04-25 22:44 | 38.76879 | -9.13486 | 355 ft | 12 kts | 168° |
| 2026-04-25 22:44 | 38.76809 | -9.13467 | 354 ft | 4 kts | 168° |
| 2026-04-25 22:45 | 38.76780 | -9.13459 | 351 ft | 4 kts | 170° |
| 2026-04-25 22:45 | 38.76747 | -9.13450 | 355 ft | 6 kts | 167° |
| 2026-04-25 22:45 | 38.76696 | -9.13442 | 355 ft | 9 kts | 187° |
| 2026-04-25 22:45 | 38.76653 | -9.13495 | 357 ft | 10 kts | 249° |
| 2026-04-25 22:46 | 38.76637 | -9.13590 | 355 ft | 12 kts | 258° |
| 2026-04-25 22:46 | 38.76618 | -9.13706 | 357 ft | 14 kts | 258° |
| 2026-04-25 22:46 | 38.76596 | -9.13841 | 355 ft | 17 kts | 258° |
| 2026-04-25 22:46 | 38.76575 | -9.13963 | 355 ft | 11 kts | 253° |
| 2026-04-25 22:47 | 38.76534 | -9.14046 | 361 ft | 11 kts | 229° |
| 2026-04-25 22:47 | 38.76497 | -9.14133 | 359 ft | 11 kts | 259° |
| 2026-04-25 22:47 | 38.76515 | -9.14239 | 354 ft | 7 kts | 293° |
| 2026-04-25 22:47 | 38.76528 | -9.14277 | 349 ft | 6 kts | 293° |
| 2026-04-25 22:48 | 38.76548 | -9.14339 | 337 ft | 9 kts | 292° |
| 2026-04-25 22:48 | 38.76575 | -9.14401 | 336 ft | 7 kts | 319° |
| 2026-04-25 22:48 | 38.76618 | -9.14400 | 336 ft | 7 kts | 20° |
| 2026-04-25 22:48 | 38.76626 | -9.14397 | 337 ft | 0 kts | 21° |
| 2026-04-25 22:49 | 38.76633 | -9.14393 | 336 ft | 10 kts | 21° |
| 2026-04-25 22:50 | 38.76931 | -9.14235 | 356 ft | 82 kts | 23° |
| 2026-04-25 22:50 | 38.77663 | -9.13843 | 374 ft | 143 kts | 23° |
| 2026-04-25 22:50 | 38.78718 | -9.13279 | 371 ft | 187 kts | 22° |
| 2026-04-25 22:50 | 38.79932 | -9.12596 | 827 ft | 191 kts | 22° |
| 2026-04-25 22:51 | 38.81094 | -9.11823 | 1619 ft | 182 kts | 30° |
| 2026-04-25 22:51 | 38.82172 | -9.11056 | 2332 ft | 176 kts | 32° |
| 2026-04-25 22:51 | 38.83257 | -9.10245 | 2651 ft | 185 kts | 30° |
| 2026-04-25 22:51 | 38.84411 | -9.09490 | 3139 ft | 186 kts | 33° |
| 2026-04-25 22:52 | 38.85517 | -9.08634 | 3636 ft | 190 kts | 34° |
| 2026-04-25 22:52 | 38.86639 | -9.07714 | 4042 ft | 192 kts | 41° |
| 2026-04-25 22:52 | 38.87445 | -9.06353 | 4459 ft | 194 kts | 67° |
| 2026-04-25 22:52 | 38.87745 | -9.05265 | 4744 ft | 196 kts | 74° |
| 2026-04-25 22:53 | 38.88017 | -9.02932 | 5324 ft | 202 kts | 94° |
| 2026-04-25 22:53 | 38.87548 | -9.01230 | 5723 ft | 206 kts | 121° |
| 2026-04-25 22:53 | 38.86792 | -8.99628 | 6088 ft | 210 kts | 118° |
| 2026-04-25 22:53 | 38.86082 | -8.98018 | 6662 ft | 205 kts | 117° |
| 2026-04-25 22:54 | 38.85290 | -8.96489 | 7024 ft | 211 kts | 140° |
| 2026-04-25 22:54 | 38.83892 | -8.95848 | 7224 ft | 229 kts | 182° |
| 2026-04-25 22:54 | 38.82331 | -8.96465 | 7353 ft | 244 kts | 204° |
| 2026-04-25 22:54 | 38.80664 | -8.97060 | 7443 ft | 258 kts | 176° |
| 2026-04-25 22:55 | 38.78884 | -8.96517 | 7663 ft | 272 kts | 159° |
| 2026-04-25 22:55 | 38.77083 | -8.95720 | 8092 ft | 283 kts | 160° |
| 2026-04-25 22:55 | 38.75191 | -8.94913 | 8674 ft | 289 kts | 161° |
| 2026-04-25 22:55 | 38.73269 | -8.94112 | 9348 ft | 292 kts | 161° |
| 2026-04-25 22:56 | 38.71319 | -8.93310 | 10039 ft | 295 kts | 161° |
| 2026-04-25 22:56 | 38.69337 | -8.92504 | 10522 ft | 306 kts | 161° |
| 2026-04-25 22:56 | 38.67230 | -8.91651 | 10692 ft | 329 kts | 161° |
| 2026-04-25 22:56 | 38.64971 | -8.90724 | 10868 ft | 352 kts | 160° |
| 2026-04-25 22:57 | 38.62562 | -8.89735 | 11112 ft | 373 kts | 161° |
| 2026-04-25 22:57 | 38.60051 | -8.88720 | 11681 ft | 383 kts | 161° |
| 2026-04-25 22:57 | 38.57490 | -8.87683 | 12443 ft | 389 kts | 161° |
| 2026-04-25 22:57 | 38.54887 | -8.86661 | 13334 ft | 393 kts | 162° |
| 2026-04-25 22:58 | 38.52251 | -8.85642 | 14167 ft | 399 kts | 162° |
| 2026-04-25 22:58 | 38.49581 | -8.84610 | 14924 ft | 403 kts | 162° |
| 2026-04-25 22:58 | 38.46886 | -8.83564 | 15724 ft | 406 kts | 162° |
| 2026-04-25 22:58 | 38.44167 | -8.82504 | 16507 ft | 411 kts | 161° |
| 2026-04-25 22:59 | 38.41412 | -8.81425 | 17277 ft | 415 kts | 161° |
| 2026-04-25 22:59 | 38.38638 | -8.80335 | 18057 ft | 419 kts | 161° |
| 2026-04-25 22:59 | 38.35835 | -8.79234 | 18749 ft | 423 kts | 162° |
| 2026-04-25 22:59 | 38.33001 | -8.78120 | 19387 ft | 428 kts | 162° |
| 2026-04-25 23:00 | 38.30136 | -8.76996 | 19989 ft | 434 kts | 162° |
| 2026-04-25 23:00 | 38.27275 | -8.75873 | 20590 ft | 438 kts | 162° |
| 2026-04-25 23:00 | 38.24344 | -8.74724 | 21193 ft | 443 kts | 162° |
| 2026-04-25 23:00 | 38.21383 | -8.73564 | 21812 ft | 447 kts | 162° |
| 2026-04-25 23:01 | 38.18399 | -8.72396 | 22431 ft | 451 kts | 162° |
| 2026-04-25 23:01 | 38.15384 | -8.71217 | 23035 ft | 455 kts | 162° |
| 2026-04-25 23:01 | 38.12341 | -8.70028 | 23628 ft | 460 kts | 162° |
| 2026-04-25 23:01 | 38.09268 | -8.68829 | 24099 ft | 464 kts | 162° |
| 2026-04-25 23:02 | 38.06170 | -8.67621 | 24594 ft | 467 kts | 162° |
| 2026-04-25 23:02 | 38.03050 | -8.66405 | 25082 ft | 471 kts | 162° |
| 2026-04-25 23:02 | 37.99914 | -8.65185 | 25568 ft | 474 kts | 162° |
| 2026-04-25 23:02 | 37.96742 | -8.63951 | 26020 ft | 478 kts | 162° |
| 2026-04-25 23:03 | 37.93552 | -8.62711 | 26482 ft | 481 kts | 162° |
| 2026-04-25 23:03 | 37.90332 | -8.61461 | 26936 ft | 484 kts | 162° |
| 2026-04-25 23:03 | 37.87097 | -8.60206 | 27367 ft | 488 kts | 163° |
| 2026-04-25 23:03 | 37.83838 | -8.58943 | 27762 ft | 492 kts | 163° |
| 2026-04-25 23:04 | 37.80555 | -8.57673 | 28168 ft | 495 kts | 163° |
| 2026-04-25 23:04 | 37.78367 | -8.56826 | 28424 ft | 497 kts | 163° |
| 2026-04-25 23:04 | 37.73928 | -8.55111 | 28938 ft | 501 kts | 163° |
| 2026-04-25 23:04 | 37.70585 | -8.53820 | 29298 ft | 504 kts | 163° |
| 2026-04-25 23:05 | 37.67223 | -8.52523 | 29632 ft | 507 kts | 163° |
| 2026-04-25 23:05 | 37.63843 | -8.51221 | 29955 ft | 509 kts | 163° |
| 2026-04-25 23:05 | 37.60496 | -8.49932 | 30305 ft | 510 kts | 163° |
| 2026-04-25 23:05 | 37.57099 | -8.48625 | 30699 ft | 509 kts | 163° |
| 2026-04-25 23:06 | 37.53717 | -8.47326 | 31112 ft | 507 kts | 163° |
| 2026-04-25 23:06 | 37.50345 | -8.46032 | 31508 ft | 506 kts | 163° |
| 2026-04-25 23:06 | 37.46979 | -8.44740 | 31887 ft | 505 kts | 163° |
| 2026-04-25 23:06 | 37.43623 | -8.43455 | 32247 ft | 505 kts | 163° |
| 2026-04-25 23:07 | 37.40255 | -8.42165 | 32581 ft | 505 kts | 163° |
| 2026-04-25 23:07 | 37.36896 | -8.40880 | 32911 ft | 505 kts | 163° |
| 2026-04-25 23:07 | 37.33530 | -8.39594 | 33244 ft | 504 kts | 163° |
| 2026-04-25 23:07 | 37.30176 | -8.38314 | 33591 ft | 503 kts | 164° |
| 2026-04-25 23:08 | 37.26829 | -8.37037 | 33943 ft | 502 kts | 164° |
| 2026-04-25 23:08 | 37.23529 | -8.35780 | 34230 ft | 502 kts | 164° |
| 2026-04-25 23:08 | 37.20187 | -8.34508 | 34503 ft | 501 kts | 164° |
| 2026-04-25 23:08 | 37.16842 | -8.33236 | 34671 ft | 504 kts | 164° |
| 2026-04-25 23:09 | 37.13433 | -8.31941 | 34856 ft | 505 kts | 164° |
| 2026-04-25 23:09 | 37.10110 | -8.30680 | 35009 ft | 507 kts | 164° |
| 2026-04-25 23:09 | 37.03343 | -8.28115 | 35063 ft | 507 kts | 164° |
| 2026-04-25 23:10 | 36.96622 | -8.25570 | 35064 ft | 502 kts | 164° |
| 2026-04-25 23:10 | 36.89946 | -8.23049 | 35067 ft | 501 kts | 164° |
| 2026-04-25 23:11 | 36.83275 | -8.20534 | 35075 ft | 501 kts | 164° |
| 2026-04-25 23:11 | 36.76594 | -8.18020 | 35072 ft | 502 kts | 164° |
| 2026-04-25 23:12 | 36.69903 | -8.15507 | 35066 ft | 503 kts | 164° |
| 2026-04-25 23:12 | 36.63178 | -8.12986 | 35073 ft | 505 kts | 164° |
| 2026-04-25 23:13 | 36.56435 | -8.10462 | 35073 ft | 506 kts | 164° |
| 2026-04-25 23:13 | 36.49721 | -8.07954 | 35073 ft | 507 kts | 164° |
| 2026-04-25 23:14 | 36.42948 | -8.05427 | 35069 ft | 507 kts | 165° |
| 2026-04-25 23:14 | 36.36196 | -8.02914 | 35066 ft | 507 kts | 165° |
| 2026-04-25 23:15 | 36.29440 | -8.00404 | 35070 ft | 507 kts | 165° |
| 2026-04-25 23:15 | 36.23826 | -7.98321 | 35062 ft | 506 kts | 165° |
| 2026-04-25 23:16 | 36.15991 | -7.95419 | 35062 ft | 505 kts | 165° |
| 2026-04-25 23:16 | 36.10364 | -7.93339 | 35060 ft | 504 kts | 165° |
| 2026-04-25 23:17 | 36.02571 | -7.90463 | 35061 ft | 502 kts | 165° |
| 2026-04-25 23:17 | 35.96927 | -7.88559 | 35064 ft | 500 kts | 170° |
| 2026-04-25 23:18 | 35.90043 | -7.87581 | 35068 ft | 497 kts | 178° |
| 2026-04-25 23:18 | 35.83140 | -7.87041 | 35059 ft | 497 kts | 178° |
| 2026-04-25 23:19 | 35.76246 | -7.86450 | 35057 ft | 497 kts | 178° |
| 2026-04-25 23:19 | 35.69383 | -7.85829 | 35052 ft | 497 kts | 178° |
| 2026-04-25 23:20 | 35.62477 | -7.85200 | 35055 ft | 498 kts | 178° |
| 2026-04-25 23:20 | 35.55566 | -7.84575 | 35049 ft | 498 kts | 178° |
| 2026-04-25 23:21 | 35.48650 | -7.83952 | 35033 ft | 498 kts | 178° |
| 2026-04-25 23:21 | 35.41727 | -7.83330 | 35045 ft | 498 kts | 178° |
| 2026-04-25 23:22 | 35.34814 | -7.82735 | 35040 ft | 498 kts | 178° |
| 2026-04-25 23:23 | 35.24485 | -7.81881 | 35024 ft | 498 kts | 178° |
| 2026-04-25 23:23 | 35.17579 | -7.81306 | 35030 ft | 497 kts | 178° |
| 2026-04-25 23:24 | 35.10680 | -7.80730 | 35028 ft | 497 kts | 178° |
| 2026-04-25 23:24 | 35.03782 | -7.80155 | 35031 ft | 496 kts | 178° |
| 2026-04-25 23:25 | 34.96879 | -7.79580 | 35013 ft | 496 kts | 178° |
| 2026-04-25 23:25 | 34.89989 | -7.79008 | 35023 ft | 496 kts | 178° |
| 2026-04-25 23:26 | 34.83102 | -7.78437 | 35019 ft | 496 kts | 178° |
| 2026-04-25 23:26 | 34.76208 | -7.77866 | 35011 ft | 496 kts | 178° |
| 2026-04-25 23:27 | 34.69370 | -7.77333 | 35007 ft | 495 kts | 179° |
| 2026-04-25 23:27 | 34.62496 | -7.76860 | 35009 ft | 494 kts | 179° |
| 2026-04-25 23:28 | 34.55638 | -7.76389 | 35008 ft | 494 kts | 178° |
| 2026-04-25 23:28 | 34.48770 | -7.75909 | 34993 ft | 494 kts | 179° |
| 2026-04-25 23:29 | 34.41919 | -7.75427 | 35001 ft | 493 kts | 179° |
| 2026-04-25 23:29 | 34.35082 | -7.74946 | 35000 ft | 492 kts | 179° |
| 2026-04-25 23:30 | 34.28256 | -7.74468 | 35009 ft | 491 kts | 178° |
| 2026-04-25 23:30 | 34.21437 | -7.73991 | 35005 ft | 490 kts | 179° |
| 2026-04-25 23:31 | 34.14622 | -7.73471 | 35005 ft | 490 kts | 177° |
| 2026-04-25 23:31 | 34.07874 | -7.72833 | 35001 ft | 489 kts | 177° |
| 2026-04-25 23:32 | 34.01089 | -7.72184 | 35005 ft | 489 kts | 177° |
| 2026-04-25 23:32 | 33.94311 | -7.71553 | 34992 ft | 488 kts | 177° |
| 2026-04-25 23:33 | 33.87535 | -7.70933 | 34993 ft | 487 kts | 177° |
| 2026-04-25 23:33 | 33.80785 | -7.70316 | 34995 ft | 486 kts | 177° |
| 2026-04-25 23:34 | 33.74033 | -7.69699 | 34997 ft | 485 kts | 178° |
| 2026-04-25 23:34 | 33.67351 | -7.69089 | 34998 ft | 484 kts | 177° |
| 2026-04-25 23:35 | 33.60644 | -7.68478 | 34990 ft | 483 kts | 177° |
| 2026-04-25 23:35 | 33.53937 | -7.67773 | 34990 ft | 484 kts | 173° |
| 2026-04-25 23:36 | 33.47401 | -7.65841 | 34993 ft | 485 kts | 161° |
| 2026-04-25 23:36 | 33.41055 | -7.63076 | 34998 ft | 485 kts | 161° |
| 2026-04-25 23:37 | 33.34711 | -7.60342 | 34998 ft | 484 kts | 162° |
| 2026-04-25 23:37 | 33.28353 | -7.57651 | 34990 ft | 485 kts | 162° |
| 2026-04-25 23:38 | 33.22024 | -7.54987 | 35000 ft | 485 kts | 162° |
| 2026-04-25 23:38 | 33.15645 | -7.52302 | 35003 ft | 486 kts | 162° |
| 2026-04-25 23:39 | 33.09219 | -7.49835 | 35012 ft | 485 kts | 168° |
| 2026-04-25 23:39 | 33.02637 | -7.48048 | 35014 ft | 485 kts | 169° |
| 2026-04-25 23:40 | 32.96055 | -7.46246 | 35005 ft | 486 kts | 168° |
| 2026-04-25 23:40 | 32.89478 | -7.44403 | 35006 ft | 485 kts | 168° |
| 2026-04-25 23:41 | 32.82913 | -7.42548 | 35000 ft | 484 kts | 168° |
| 2026-04-25 23:41 | 32.76366 | -7.40680 | 35001 ft | 483 kts | 168° |
| 2026-04-25 23:42 | 32.69865 | -7.38831 | 34995 ft | 483 kts | 168° |
| 2026-04-25 23:42 | 32.63339 | -7.36980 | 34997 ft | 481 kts | 168° |
| 2026-04-25 23:43 | 32.56824 | -7.35153 | 34986 ft | 481 kts | 168° |
| 2026-04-25 23:43 | 32.50315 | -7.33352 | 34983 ft | 480 kts | 168° |
| 2026-04-25 23:44 | 32.43814 | -7.31554 | 34989 ft | 479 kts | 168° |
| 2026-04-25 23:44 | 32.37317 | -7.29757 | 34985 ft | 479 kts | 168° |
| 2026-04-25 23:45 | 32.30825 | -7.27960 | 34985 ft | 479 kts | 168° |
| 2026-04-25 23:45 | 32.24335 | -7.26167 | 34988 ft | 479 kts | 168° |
| 2026-04-25 23:46 | 32.17891 | -7.24359 | 34993 ft | 479 kts | 168° |
| 2026-04-25 23:46 | 32.11405 | -7.22535 | 34998 ft | 479 kts | 168° |
| 2026-04-25 23:47 | 32.04929 | -7.20719 | 34989 ft | 478 kts | 168° |
| 2026-04-25 23:47 | 31.98464 | -7.18921 | 34994 ft | 477 kts | 168° |
| 2026-04-25 23:48 | 31.91991 | -7.17147 | 34999 ft | 476 kts | 168° |
| 2026-04-25 23:48 | 31.85541 | -7.15383 | 35005 ft | 475 kts | 168° |
| 2026-04-25 23:49 | 31.79135 | -7.13631 | 35015 ft | 475 kts | 168° |
| 2026-04-25 23:49 | 31.72686 | -7.11867 | 35021 ft | 474 kts | 168° |
| 2026-04-25 23:50 | 31.66255 | -7.10111 | 35022 ft | 474 kts | 168° |
| 2026-04-25 23:50 | 31.59826 | -7.08357 | 35023 ft | 474 kts | 168° |
| 2026-04-25 23:51 | 31.53394 | -7.06605 | 35034 ft | 475 kts | 168° |
| 2026-04-25 23:51 | 31.46956 | -7.04855 | 35033 ft | 475 kts | 168° |
| 2026-04-25 23:52 | 31.40522 | -7.03107 | 35017 ft | 475 kts | 168° |
| 2026-04-25 23:52 | 31.34117 | -7.01370 | 35012 ft | 475 kts | 168° |
| 2026-04-25 23:53 | 31.27683 | -6.99623 | 34999 ft | 474 kts | 168° |
| 2026-04-25 23:53 | 31.21261 | -6.97878 | 34978 ft | 473 kts | 168° |
| 2026-04-25 23:54 | 31.14846 | -6.96138 | 34976 ft | 472 kts | 168° |
| 2026-04-25 23:54 | 31.08450 | -6.94406 | 34968 ft | 471 kts | 168° |
| 2026-04-25 23:55 | 31.02064 | -6.92678 | 34965 ft | 471 kts | 168° |
| 2026-04-25 23:55 | 30.95862 | -6.90387 | 34967 ft | 471 kts | 150° |
| 2026-04-25 23:55 | 30.93247 | -6.88071 | 34956 ft | 475 kts | 137° |
| 2026-04-25 23:56 | 30.91136 | -6.85097 | 34952 ft | 479 kts | 123° |
| 2026-04-25 23:56 | 30.87859 | -6.78322 | 34966 ft | 482 kts | 121° |
| 2026-04-25 23:57 | 30.84621 | -6.71498 | 34956 ft | 486 kts | 121° |
| 2026-04-25 23:57 | 30.81290 | -6.64637 | 34962 ft | 488 kts | 122° |
| 2026-04-25 23:58 | 30.77911 | -6.57778 | 34928 ft | 489 kts | 122° |
| 2026-04-25 23:58 | 30.74511 | -6.50909 | 34959 ft | 491 kts | 122° |
| 2026-04-25 23:59 | 30.71101 | -6.44028 | 34942 ft | 492 kts | 122° |
| 2026-04-25 23:59 | 30.67686 | -6.37144 | 34961 ft | 492 kts | 122° |
| 2026-04-26 00:00 | 30.64267 | -6.30262 | 34962 ft | 491 kts | 122° |
| 2026-04-26 00:00 | 30.60858 | -6.23408 | 34961 ft | 490 kts | 122° |
| 2026-04-26 00:01 | 30.57448 | -6.16570 | 34939 ft | 489 kts | 122° |
| 2026-04-26 00:01 | 30.54040 | -6.09747 | 34942 ft | 488 kts | 122° |
| 2026-04-26 00:02 | 30.50633 | -6.02937 | 34926 ft | 488 kts | 122° |
| 2026-04-26 00:02 | 30.47243 | -5.96173 | 34921 ft | 488 kts | 122° |
| 2026-04-26 00:03 | 30.43832 | -5.89379 | 34916 ft | 487 kts | 122° |
| 2026-04-26 00:03 | 30.40422 | -5.82597 | 34916 ft | 488 kts | 122° |
| 2026-04-26 00:04 | 30.36997 | -5.75795 | 34918 ft | 488 kts | 122° |
| 2026-04-26 00:04 | 30.33504 | -5.69072 | 34903 ft | 485 kts | 129° |
| 2026-04-26 00:04 | 30.31268 | -5.66184 | 34923 ft | 480 kts | 140° |
| 2026-04-26 00:05 | 30.28646 | -5.63826 | 34928 ft | 477 kts | 149° |
| 2026-04-26 00:05 | 30.22699 | -5.60496 | 34912 ft | 475 kts | 159° |
| 2026-04-26 00:06 | 30.16595 | -5.57452 | 34900 ft | 479 kts | 159° |
| 2026-04-26 00:06 | 30.11504 | -5.54872 | 34904 ft | 482 kts | 159° |
| 2026-04-26 00:07 | 30.05368 | -5.51724 | 34887 ft | 484 kts | 158° |
| 2026-04-26 00:07 | 29.99207 | -5.48550 | 34881 ft | 484 kts | 159° |
| 2026-04-26 00:08 | 29.93057 | -5.45385 | 34875 ft | 484 kts | 159° |
| 2026-04-26 00:08 | 29.86903 | -5.42225 | 34874 ft | 483 kts | 159° |
| 2026-04-26 00:09 | 29.80762 | -5.39078 | 34862 ft | 482 kts | 159° |
| 2026-04-26 00:09 | 29.74646 | -5.35948 | 34865 ft | 481 kts | 159° |
| 2026-04-26 00:10 | 29.68530 | -5.32823 | 34840 ft | 481 kts | 159° |
| 2026-04-26 00:10 | 29.62417 | -5.29703 | 34854 ft | 481 kts | 159° |
| 2026-04-26 00:11 | 29.56302 | -5.26586 | 34854 ft | 481 kts | 159° |
| 2026-04-26 00:11 | 29.50178 | -5.23469 | 34854 ft | 482 kts | 159° |
| 2026-04-26 00:12 | 29.44087 | -5.20372 | 34847 ft | 482 kts | 159° |
| 2026-04-26 00:12 | 29.37945 | -5.17253 | 34838 ft | 483 kts | 160° |
| 2026-04-26 00:13 | 29.31795 | -5.14135 | 34842 ft | 484 kts | 160° |
| 2026-04-26 00:13 | 29.25636 | -5.11017 | 34838 ft | 484 kts | 160° |
| 2026-04-26 00:14 | 29.19464 | -5.07895 | 34836 ft | 484 kts | 160° |
| 2026-04-26 00:14 | 29.13295 | -5.04779 | 34827 ft | 485 kts | 160° |
| 2026-04-26 00:15 | 29.07129 | -5.01669 | 34835 ft | 485 kts | 160° |
| 2026-04-26 00:15 | 29.00954 | -4.98559 | 34828 ft | 485 kts | 160° |
| 2026-04-26 00:16 | 28.94775 | -4.95451 | 34829 ft | 485 kts | 160° |
| 2026-04-26 00:16 | 28.88632 | -4.92364 | 34822 ft | 485 kts | 160° |
| 2026-04-26 00:17 | 28.82458 | -4.89265 | 34812 ft | 485 kts | 160° |
| 2026-04-26 00:17 | 28.76282 | -4.86171 | 34816 ft | 485 kts | 160° |
| 2026-04-26 00:18 | 28.70098 | -4.83077 | 34817 ft | 486 kts | 160° |
| 2026-04-26 00:18 | 28.63907 | -4.79983 | 34811 ft | 486 kts | 160° |
| 2026-04-26 00:19 | 28.57712 | -4.76890 | 34792 ft | 486 kts | 161° |
| 2026-04-26 00:19 | 28.51509 | -4.73798 | 34811 ft | 487 kts | 161° |
| 2026-04-26 00:20 | 28.45297 | -4.70705 | 34790 ft | 488 kts | 161° |
| 2026-04-26 00:20 | 28.39074 | -4.67611 | 34806 ft | 488 kts | 161° |
| 2026-04-26 00:21 | 28.32838 | -4.64514 | 34803 ft | 489 kts | 161° |
| 2026-04-26 00:21 | 28.26603 | -4.61421 | 34792 ft | 489 kts | 161° |
| 2026-04-26 00:22 | 28.20402 | -4.58350 | 34798 ft | 490 kts | 161° |
| 2026-04-26 00:22 | 28.14153 | -4.55258 | 34787 ft | 490 kts | 161° |
| 2026-04-26 00:23 | 28.07901 | -4.52167 | 34789 ft | 490 kts | 161° |
| 2026-04-26 00:23 | 28.01630 | -4.49109 | 34792 ft | 489 kts | 164° |
| 2026-04-26 00:24 | 27.95263 | -4.46440 | 34788 ft | 488 kts | 166° |
| 2026-04-26 00:24 | 27.88871 | -4.43847 | 34797 ft | 488 kts | 166° |
| 2026-04-26 00:25 | 27.82470 | -4.41230 | 34794 ft | 490 kts | 166° |
| 2026-04-26 00:25 | 27.76053 | -4.38588 | 34800 ft | 491 kts | 166° |
| 2026-04-26 00:26 | 27.69637 | -4.35943 | 34789 ft | 491 kts | 166° |
| 2026-04-26 00:26 | 27.63221 | -4.33304 | 34795 ft | 491 kts | 166° |
| 2026-04-26 00:27 | 27.56844 | -4.30684 | 34801 ft | 490 kts | 166° |
| 2026-04-26 00:27 | 27.50430 | -4.28054 | 34798 ft | 490 kts | 166° |
| 2026-04-26 00:28 | 27.44021 | -4.25428 | 34803 ft | 490 kts | 166° |
| 2026-04-26 00:28 | 27.37614 | -4.22806 | 34795 ft | 490 kts | 166° |
| 2026-04-26 00:29 | 27.31195 | -4.20183 | 34805 ft | 491 kts | 166° |
| 2026-04-26 00:29 | 27.24769 | -4.17560 | 34807 ft | 492 kts | 166° |
| 2026-04-26 00:30 | 27.18330 | -4.14927 | 34807 ft | 493 kts | 166° |
| 2026-04-26 00:30 | 27.11933 | -4.12301 | 34811 ft | 493 kts | 166° |
| 2026-04-26 00:31 | 27.05472 | -4.09650 | 34811 ft | 494 kts | 167° |
| 2026-04-26 00:31 | 26.98997 | -4.06998 | 34815 ft | 495 kts | 167° |
| 2026-04-26 00:32 | 26.92517 | -4.04347 | 34815 ft | 496 kts | 167° |
| 2026-04-26 00:32 | 26.82775 | -4.00369 | 34814 ft | 496 kts | 167° |
| 2026-04-26 00:33 | 26.76284 | -3.97721 | 34810 ft | 496 kts | 167° |
| 2026-04-26 00:33 | 26.69835 | -3.95096 | 34814 ft | 497 kts | 167° |
| 2026-04-26 00:34 | 26.63329 | -3.92450 | 34815 ft | 497 kts | 167° |
| 2026-04-26 00:34 | 26.56823 | -3.89807 | 34811 ft | 498 kts | 167° |
| 2026-04-26 00:35 | 26.50312 | -3.87165 | 34781 ft | 498 kts | 168° |
| 2026-04-26 00:35 | 26.43801 | -3.84526 | 34811 ft | 498 kts | 168° |
| 2026-04-26 00:36 | 26.37276 | -3.81885 | 34819 ft | 498 kts | 168° |
| 2026-04-26 00:36 | 26.30763 | -3.79252 | 34815 ft | 498 kts | 168° |
| 2026-04-26 00:37 | 26.24246 | -3.76620 | 34813 ft | 498 kts | 168° |
| 2026-04-26 00:37 | 26.17769 | -3.74006 | 34793 ft | 497 kts | 168° |
| 2026-04-26 00:38 | 26.11217 | -3.71366 | 34810 ft | 498 kts | 168° |
| 2026-04-26 00:38 | 26.04749 | -3.68718 | 34809 ft | 499 kts | 168° |
| 2026-04-26 00:39 | 25.98239 | -3.66027 | 34808 ft | 500 kts | 168° |
| 2026-04-26 00:39 | 25.91714 | -3.63333 | 34804 ft | 500 kts | 168° |
| 2026-04-26 00:40 | 25.85183 | -3.60646 | 34797 ft | 501 kts | 168° |
| 2026-04-26 00:40 | 25.78636 | -3.57959 | 34800 ft | 501 kts | 168° |
| 2026-04-26 00:41 | 25.72087 | -3.55275 | 34803 ft | 502 kts | 168° |
| 2026-04-26 00:41 | 25.65528 | -3.52589 | 34803 ft | 503 kts | 168° |
| 2026-04-26 00:42 | 25.58960 | -3.49902 | 34764 ft | 503 kts | 168° |
| 2026-04-26 00:42 | 25.52392 | -3.47218 | 34791 ft | 503 kts | 168° |
| 2026-04-26 00:43 | 25.45847 | -3.44548 | 34795 ft | 504 kts | 168° |
| 2026-04-26 00:43 | 25.39270 | -3.41867 | 34795 ft | 504 kts | 168° |
| 2026-04-26 00:44 | 25.32693 | -3.39189 | 34794 ft | 504 kts | 168° |
| 2026-04-26 00:44 | 25.26116 | -3.36514 | 34777 ft | 503 kts | 168° |
| 2026-04-26 00:45 | 25.20641 | -3.34290 | 34793 ft | 504 kts | 168° |
| 2026-04-26 00:45 | 25.12946 | -3.31168 | 34801 ft | 504 kts | 168° |
| 2026-04-26 00:46 | 25.06343 | -3.28492 | 34806 ft | 505 kts | 168° |
| 2026-04-26 00:46 | 24.99783 | -3.25837 | 34801 ft | 506 kts | 168° |
| 2026-04-26 00:47 | 24.93138 | -3.23150 | 34802 ft | 506 kts | 168° |
| 2026-04-26 00:47 | 24.86563 | -3.20495 | 34803 ft | 506 kts | 168° |
| 2026-04-26 00:48 | 24.79945 | -3.17825 | 34806 ft | 507 kts | 168° |
| 2026-04-26 00:48 | 24.73326 | -3.15157 | 34806 ft | 506 kts | 168° |
| 2026-04-26 00:49 | 24.66707 | -3.12493 | 34805 ft | 506 kts | 168° |
| 2026-04-26 00:49 | 24.60091 | -3.09833 | 34807 ft | 506 kts | 168° |
| 2026-04-26 00:50 | 24.53477 | -3.07177 | 34809 ft | 506 kts | 168° |
| 2026-04-26 00:50 | 24.46855 | -3.04520 | 34809 ft | 506 kts | 168° |
| 2026-04-26 00:51 | 24.40241 | -3.01870 | 34808 ft | 506 kts | 168° |
| 2026-04-26 00:51 | 24.33629 | -2.99224 | 34781 ft | 506 kts | 168° |
| 2026-04-26 00:52 | 24.27013 | -2.96579 | 34804 ft | 506 kts | 168° |
| 2026-04-26 00:52 | 24.20428 | -2.93951 | 34809 ft | 508 kts | 168° |
| 2026-04-26 00:53 | 24.13782 | -2.91300 | 34811 ft | 509 kts | 168° |
| 2026-04-26 00:53 | 24.07122 | -2.88645 | 34804 ft | 510 kts | 168° |
| 2026-04-26 00:54 | 24.01581 | -2.86439 | 34778 ft | 509 kts | 168° |
| 2026-04-26 00:54 | 23.94917 | -2.83788 | 34807 ft | 510 kts | 168° |
| 2026-04-26 00:55 | 23.88229 | -2.81132 | 34803 ft | 511 kts | 168° |
| 2026-04-26 00:55 | 23.81533 | -2.78475 | 34792 ft | 512 kts | 168° |
| 2026-04-26 00:56 | 23.74823 | -2.75814 | 34806 ft | 512 kts | 168° |
| 2026-04-26 00:56 | 23.68117 | -2.73158 | 34787 ft | 512 kts | 168° |
| 2026-04-26 00:57 | 23.61405 | -2.70529 | 34790 ft | 512 kts | 169° |
| 2026-04-26 00:57 | 23.54724 | -2.67981 | 34797 ft | 512 kts | 169° |
| 2026-04-26 00:58 | 23.47992 | -2.65423 | 34798 ft | 512 kts | 169° |
| 2026-04-26 00:58 | 23.41258 | -2.62856 | 34795 ft | 513 kts | 169° |
| 2026-04-26 00:59 | 23.34522 | -2.60285 | 34788 ft | 513 kts | 169° |
| 2026-04-26 00:59 | 23.27772 | -2.57712 | 34801 ft | 514 kts | 169° |
| 2026-04-26 01:00 | 23.21015 | -2.55139 | 34810 ft | 515 kts | 169° |
| 2026-04-26 01:00 | 23.14241 | -2.52562 | 34810 ft | 515 kts | 169° |
| 2026-04-26 01:01 | 23.07505 | -2.50002 | 34786 ft | 516 kts | 169° |
| 2026-04-26 01:01 | 23.00724 | -2.47428 | 34804 ft | 517 kts | 169° |
| 2026-04-26 01:02 | 22.93928 | -2.44852 | 34826 ft | 518 kts | 169° |
| 2026-04-26 01:02 | 22.87118 | -2.42272 | 34818 ft | 519 kts | 169° |
| 2026-04-26 01:03 | 22.80292 | -2.39689 | 34815 ft | 519 kts | 169° |
| 2026-04-26 01:03 | 22.73468 | -2.37109 | 34819 ft | 519 kts | 169° |
| 2026-04-26 01:04 | 22.66651 | -2.34535 | 34825 ft | 519 kts | 169° |
| 2026-04-26 01:04 | 22.59808 | -2.31954 | 34825 ft | 520 kts | 169° |
| 2026-04-26 01:05 | 22.52978 | -2.29381 | 34827 ft | 520 kts | 169° |
| 2026-04-26 01:05 | 22.46151 | -2.26811 | 34825 ft | 520 kts | 169° |
| 2026-04-26 01:06 | 22.39310 | -2.24239 | 34822 ft | 520 kts | 169° |
| 2026-04-26 01:06 | 22.32524 | -2.21690 | 34827 ft | 520 kts | 169° |
| 2026-04-26 01:07 | 22.25690 | -2.19125 | 34834 ft | 520 kts | 169° |
| 2026-04-26 01:07 | 22.18845 | -2.16560 | 34833 ft | 520 kts | 169° |
| 2026-04-26 01:08 | 22.12005 | -2.13998 | 34833 ft | 520 kts | 169° |
| 2026-04-26 01:08 | 22.05159 | -2.11436 | 34822 ft | 520 kts | 169° |
| 2026-04-26 01:09 | 21.98366 | -2.08902 | 34827 ft | 520 kts | 169° |
| 2026-04-26 01:09 | 21.91525 | -2.06356 | 34828 ft | 520 kts | 169° |
| 2026-04-26 01:10 | 21.84683 | -2.03811 | 34827 ft | 520 kts | 169° |
| 2026-04-26 01:10 | 21.77841 | -2.01266 | 34803 ft | 520 kts | 169° |
| 2026-04-26 01:11 | 21.71003 | -1.98725 | 34820 ft | 520 kts | 169° |
| 2026-04-26 01:11 | 21.64156 | -1.96184 | 34826 ft | 520 kts | 169° |
| 2026-04-26 01:12 | 21.57312 | -1.93647 | 34825 ft | 520 kts | 169° |
| 2026-04-26 01:12 | 21.50511 | -1.91128 | 34824 ft | 520 kts | 169° |
| 2026-04-26 01:13 | 21.43654 | -1.88591 | 34826 ft | 521 kts | 169° |
| 2026-04-26 01:13 | 21.36803 | -1.86058 | 34824 ft | 521 kts | 169° |
| 2026-04-26 01:14 | 21.29944 | -1.83525 | 34825 ft | 521 kts | 169° |
| 2026-04-26 01:14 | 21.23091 | -1.80997 | 34821 ft | 521 kts | 169° |
| 2026-04-26 01:15 | 21.16247 | -1.78474 | 34821 ft | 521 kts | 169° |
| 2026-04-26 01:15 | 21.09388 | -1.75949 | 34818 ft | 520 kts | 169° |
| 2026-04-26 01:16 | 21.02585 | -1.73447 | 34820 ft | 520 kts | 169° |
| 2026-04-26 01:16 | 20.95733 | -1.70929 | 34819 ft | 521 kts | 169° |
| 2026-04-26 01:17 | 20.88878 | -1.68413 | 34821 ft | 521 kts | 169° |
| 2026-04-26 01:17 | 20.82020 | -1.65897 | 34812 ft | 521 kts | 169° |
| 2026-04-26 01:18 | 20.75150 | -1.63379 | 34806 ft | 520 kts | 169° |
| 2026-04-26 01:18 | 20.68301 | -1.60872 | 34809 ft | 520 kts | 169° |
| 2026-04-26 01:19 | 20.61450 | -1.58366 | 34808 ft | 520 kts | 169° |
| 2026-04-26 01:19 | 20.54596 | -1.55862 | 34805 ft | 521 kts | 169° |
| 2026-04-26 01:20 | 20.47778 | -1.53374 | 34814 ft | 521 kts | 169° |
| 2026-04-26 01:20 | 20.40923 | -1.50873 | 34808 ft | 520 kts | 168° |
| 2026-04-26 01:21 | 20.34078 | -1.48379 | 34808 ft | 520 kts | 168° |
| 2026-04-26 01:21 | 20.27218 | -1.45881 | 34813 ft | 520 kts | 168° |
| 2026-04-26 01:22 | 20.20351 | -1.43383 | 34816 ft | 520 kts | 168° |
| 2026-04-26 01:22 | 20.13544 | -1.40909 | 34810 ft | 520 kts | 168° |
| 2026-04-26 01:23 | 20.06696 | -1.38420 | 34802 ft | 520 kts | 168° |
| 2026-04-26 01:23 | 19.99846 | -1.35933 | 34809 ft | 519 kts | 168° |
| 2026-04-26 01:24 | 19.93008 | -1.33452 | 34811 ft | 519 kts | 168° |
| 2026-04-26 01:24 | 19.86171 | -1.30974 | 34804 ft | 519 kts | 168° |
| 2026-04-26 01:25 | 19.79333 | -1.28499 | 34777 ft | 519 kts | 168° |
| 2026-04-26 01:25 | 19.72502 | -1.26027 | 34796 ft | 518 kts | 168° |
| 2026-04-26 01:26 | 19.65670 | -1.23558 | 34799 ft | 518 kts | 168° |
| 2026-04-26 01:26 | 19.58897 | -1.21112 | 34801 ft | 517 kts | 168° |
| 2026-04-26 01:27 | 19.52073 | -1.18650 | 34798 ft | 517 kts | 168° |
| 2026-04-26 01:27 | 19.45259 | -1.16194 | 34777 ft | 517 kts | 168° |
| 2026-04-26 01:28 | 19.38454 | -1.13743 | 34794 ft | 516 kts | 168° |
| 2026-04-26 01:28 | 19.31658 | -1.11297 | 34791 ft | 516 kts | 168° |
| 2026-04-26 01:29 | 19.24860 | -1.08853 | 34799 ft | 515 kts | 168° |
| 2026-04-26 01:29 | 19.18073 | -1.06415 | 34805 ft | 515 kts | 168° |
| 2026-04-26 01:30 | 19.11286 | -1.03980 | 34777 ft | 515 kts | 168° |
| 2026-04-26 01:30 | 19.04548 | -1.01564 | 34807 ft | 515 kts | 168° |
| 2026-04-26 01:31 | 19.01146 | -1.00345 | 34947 ft | 517 kts | 168° |
| 2026-04-26 01:31 | 18.97746 | -0.99127 | 35273 ft | 514 kts | 168° |
| 2026-04-26 01:31 | 18.94372 | -0.97916 | 35697 ft | 510 kts | 168° |
| 2026-04-26 01:31 | 18.91026 | -0.96716 | 36117 ft | 506 kts | 168° |
| 2026-04-26 01:32 | 18.87707 | -0.95527 | 36501 ft | 502 kts | 168° |
| 2026-04-26 01:32 | 18.84402 | -0.94346 | 36738 ft | 502 kts | 168° |
| 2026-04-26 01:32 | 18.77753 | -0.91976 | 36805 ft | 504 kts | 168° |
| 2026-04-26 01:33 | 18.71125 | -0.89608 | 36800 ft | 501 kts | 168° |
| 2026-04-26 01:33 | 18.64528 | -0.87253 | 36803 ft | 500 kts | 168° |
| 2026-04-26 01:34 | 18.57946 | -0.84909 | 36796 ft | 499 kts | 168° |
| 2026-04-26 01:34 | 18.51365 | -0.82570 | 36797 ft | 498 kts | 168° |
| 2026-04-26 01:35 | 18.44789 | -0.80233 | 36796 ft | 499 kts | 168° |
| 2026-04-26 01:35 | 18.38249 | -0.77911 | 36783 ft | 499 kts | 168° |
| 2026-04-26 01:36 | 18.31664 | -0.75572 | 36785 ft | 499 kts | 168° |
| 2026-04-26 01:37 | 18.21791 | -0.72070 | 36792 ft | 500 kts | 168° |
| 2026-04-26 01:37 | 18.15200 | -0.69736 | 36792 ft | 500 kts | 168° |
| 2026-04-26 01:38 | 18.08600 | -0.67399 | 36789 ft | 500 kts | 168° |
| 2026-04-26 01:38 | 18.02007 | -0.65067 | 36788 ft | 500 kts | 168° |
| 2026-04-26 01:39 | 17.95415 | -0.62737 | 36783 ft | 500 kts | 168° |
| 2026-04-26 01:39 | 17.88825 | -0.60410 | 36786 ft | 499 kts | 168° |
| 2026-04-26 01:40 | 17.82235 | -0.58084 | 36784 ft | 499 kts | 168° |
| 2026-04-26 01:40 | 17.75691 | -0.55777 | 36783 ft | 499 kts | 168° |
| 2026-04-26 01:41 | 17.69099 | -0.53455 | 36778 ft | 499 kts | 167° |
| 2026-04-26 01:41 | 17.62523 | -0.51139 | 36780 ft | 498 kts | 167° |
| 2026-04-26 01:42 | 17.55945 | -0.48825 | 36787 ft | 498 kts | 167° |
| 2026-04-26 01:42 | 17.49384 | -0.46519 | 36783 ft | 498 kts | 167° |
| 2026-04-26 01:43 | 17.42819 | -0.44213 | 36788 ft | 497 kts | 167° |
| 2026-04-26 01:43 | 17.37370 | -0.42300 | 36772 ft | 497 kts | 167° |
| 2026-04-26 01:44 | 17.30810 | -0.39999 | 36784 ft | 496 kts | 167° |
| 2026-04-26 01:44 | 17.23206 | -0.37334 | 36783 ft | 496 kts | 167° |
| 2026-04-26 01:45 | 17.17725 | -0.35415 | 36779 ft | 495 kts | 167° |
| 2026-04-26 01:45 | 17.11223 | -0.33139 | 36778 ft | 495 kts | 167° |
| 2026-04-26 01:46 | 17.04693 | -0.30856 | 36751 ft | 495 kts | 167° |
| 2026-04-26 01:46 | 16.98165 | -0.28575 | 36770 ft | 494 kts | 167° |
| 2026-04-26 01:47 | 16.91647 | -0.26298 | 36779 ft | 494 kts | 167° |
| 2026-04-26 01:47 | 16.85134 | -0.24026 | 36772 ft | 493 kts | 167° |
| 2026-04-26 01:48 | 16.78625 | -0.21756 | 36775 ft | 493 kts | 167° |
| 2026-04-26 01:48 | 16.72120 | -0.19489 | 36774 ft | 493 kts | 167° |
| 2026-04-26 01:49 | 16.65617 | -0.17225 | 36765 ft | 492 kts | 166° |
| 2026-04-26 01:49 | 16.59116 | -0.14963 | 36773 ft | 492 kts | 166° |
| 2026-04-26 01:50 | 16.52615 | -0.12703 | 36772 ft | 493 kts | 166° |
| 2026-04-26 01:50 | 16.46104 | -0.10440 | 36772 ft | 493 kts | 166° |
| 2026-04-26 01:51 | 16.39634 | -0.08193 | 36773 ft | 493 kts | 166° |
| 2026-04-26 01:51 | 16.33124 | -0.05934 | 36761 ft | 493 kts | 166° |
| 2026-04-26 01:52 | 16.26578 | -0.03664 | 36776 ft | 493 kts | 166° |
| 2026-04-26 01:52 | 16.20087 | -0.01499 | 36772 ft | 491 kts | 168° |
| 2026-04-26 01:53 | 16.13495 | 0.00374 | 36774 ft | 491 kts | 170° |
| 2026-04-26 01:53 | 16.06898 | 0.02212 | 36777 ft | 491 kts | 169° |
| 2026-04-26 01:54 | 16.00306 | 0.04096 | 36775 ft | 491 kts | 169° |
| 2026-04-26 01:54 | 15.93724 | 0.06002 | 36778 ft | 491 kts | 169° |
| 2026-04-26 01:55 | 15.87154 | 0.07906 | 36771 ft | 490 kts | 169° |
| 2026-04-26 01:55 | 15.80625 | 0.09793 | 36778 ft | 489 kts | 169° |
| 2026-04-26 01:56 | 15.74066 | 0.11687 | 36773 ft | 489 kts | 169° |
| 2026-04-26 01:56 | 15.67515 | 0.13577 | 36777 ft | 488 kts | 169° |
| 2026-04-26 01:57 | 15.60968 | 0.15464 | 36768 ft | 488 kts | 168° |
| 2026-04-26 01:57 | 15.54424 | 0.17350 | 36777 ft | 488 kts | 168° |
| 2026-04-26 01:58 | 15.47880 | 0.19233 | 36776 ft | 488 kts | 168° |
| 2026-04-26 01:58 | 15.41331 | 0.21117 | 36775 ft | 488 kts | 168° |
| 2026-04-26 01:59 | 15.34779 | 0.23002 | 36782 ft | 489 kts | 168° |
| 2026-04-26 01:59 | 15.28215 | 0.24889 | 36773 ft | 489 kts | 168° |
| 2026-04-26 02:00 | 15.21652 | 0.26774 | 36779 ft | 489 kts | 168° |
| 2026-04-26 02:00 | 15.15092 | 0.28658 | 36786 ft | 490 kts | 168° |
| 2026-04-26 02:01 | 15.08553 | 0.30534 | 36784 ft | 491 kts | 168° |
| 2026-04-26 02:01 | 15.01962 | 0.32424 | 36782 ft | 491 kts | 168° |
| 2026-04-26 02:02 | 14.95374 | 0.34312 | 36785 ft | 491 kts | 168° |
| 2026-04-26 02:02 | 14.88784 | 0.36199 | 36781 ft | 491 kts | 168° |
| 2026-04-26 02:03 | 14.82207 | 0.38082 | 36782 ft | 491 kts | 168° |
| 2026-04-26 02:03 | 14.75620 | 0.39966 | 36780 ft | 490 kts | 168° |
| 2026-04-26 02:04 | 14.69046 | 0.41845 | 36783 ft | 490 kts | 168° |
| 2026-04-26 02:04 | 14.62485 | 0.43719 | 36784 ft | 490 kts | 168° |
| 2026-04-26 02:05 | 14.55911 | 0.45596 | 36786 ft | 489 kts | 168° |
| 2026-04-26 02:05 | 14.49390 | 0.47456 | 36792 ft | 489 kts | 168° |
| 2026-04-26 02:06 | 14.42826 | 0.49328 | 36790 ft | 489 kts | 168° |
| 2026-04-26 02:06 | 14.36261 | 0.51198 | 36791 ft | 489 kts | 168° |
| 2026-04-26 02:07 | 14.29686 | 0.53071 | 36790 ft | 490 kts | 168° |
| 2026-04-26 02:07 | 14.23118 | 0.54940 | 36792 ft | 490 kts | 168° |
| 2026-04-26 02:08 | 14.16550 | 0.56808 | 36792 ft | 489 kts | 167° |
| 2026-04-26 02:08 | 14.10019 | 0.58665 | 36792 ft | 489 kts | 167° |
| 2026-04-26 02:09 | 14.03454 | 0.60531 | 36797 ft | 489 kts | 167° |
| 2026-04-26 02:09 | 13.96889 | 0.62394 | 36796 ft | 489 kts | 167° |
| 2026-04-26 02:10 | 13.90326 | 0.64257 | 36798 ft | 489 kts | 167° |
| 2026-04-26 02:10 | 13.83763 | 0.66119 | 36786 ft | 489 kts | 167° |
| 2026-04-26 02:11 | 13.77199 | 0.67978 | 36812 ft | 489 kts | 167° |
| 2026-04-26 02:11 | 13.70632 | 0.69829 | 36799 ft | 489 kts | 167° |
| 2026-04-26 02:12 | 13.64063 | 0.71678 | 36795 ft | 489 kts | 167° |
| 2026-04-26 02:12 | 13.57494 | 0.73529 | 36801 ft | 489 kts | 167° |
| 2026-04-26 02:13 | 13.50960 | 0.75369 | 36815 ft | 489 kts | 167° |
| 2026-04-26 02:13 | 13.44388 | 0.77218 | 36807 ft | 490 kts | 167° |
| 2026-04-26 02:14 | 13.37811 | 0.79068 | 36808 ft | 490 kts | 167° |
| 2026-04-26 02:14 | 13.31229 | 0.80924 | 36808 ft | 491 kts | 167° |
| 2026-04-26 02:15 | 13.24642 | 0.82786 | 36815 ft | 491 kts | 167° |
| 2026-04-26 02:15 | 13.18044 | 0.84650 | 36809 ft | 491 kts | 167° |
| 2026-04-26 02:16 | 13.11443 | 0.86513 | 36800 ft | 491 kts | 167° |
| 2026-04-26 02:16 | 13.04859 | 0.88368 | 36808 ft | 491 kts | 167° |
| 2026-04-26 02:17 | 12.98307 | 0.90207 | 36818 ft | 491 kts | 167° |
| 2026-04-26 02:17 | 12.91724 | 0.92053 | 36804 ft | 490 kts | 167° |
| 2026-04-26 02:18 | 12.85139 | 0.93900 | 36812 ft | 490 kts | 167° |
| 2026-04-26 02:18 | 12.78574 | 0.95741 | 36812 ft | 489 kts | 167° |
| 2026-04-26 02:19 | 12.72004 | 0.97583 | 36806 ft | 489 kts | 167° |
| 2026-04-26 02:19 | 12.65426 | 0.99425 | 36809 ft | 489 kts | 167° |
| 2026-04-26 02:20 | 12.58846 | 1.01268 | 36816 ft | 490 kts | 167° |
| 2026-04-26 02:20 | 12.52267 | 1.03109 | 36811 ft | 490 kts | 167° |
| 2026-04-26 02:21 | 12.45727 | 1.04938 | 36816 ft | 491 kts | 167° |
| 2026-04-26 02:21 | 12.39138 | 1.06780 | 36815 ft | 491 kts | 166° |
| 2026-04-26 02:22 | 12.32551 | 1.08621 | 36828 ft | 491 kts | 166° |
| 2026-04-26 02:22 | 12.25965 | 1.10460 | 36816 ft | 490 kts | 166° |
| 2026-04-26 02:23 | 12.19376 | 1.12300 | 36823 ft | 490 kts | 166° |
| 2026-04-26 02:23 | 12.12797 | 1.14135 | 36832 ft | 490 kts | 166° |
| 2026-04-26 02:24 | 12.06223 | 1.15969 | 36817 ft | 490 kts | 166° |
| 2026-04-26 02:24 | 11.99650 | 1.17802 | 36829 ft | 490 kts | 166° |
| 2026-04-26 02:25 | 11.93113 | 1.19624 | 36829 ft | 490 kts | 166° |
| 2026-04-26 02:25 | 11.86541 | 1.21457 | 36834 ft | 490 kts | 166° |
| 2026-04-26 02:26 | 11.79974 | 1.23287 | 36831 ft | 490 kts | 166° |
| 2026-04-26 02:26 | 11.73392 | 1.25119 | 36835 ft | 490 kts | 166° |
| 2026-04-26 02:27 | 11.66817 | 1.26949 | 36830 ft | 490 kts | 166° |
| 2026-04-26 02:27 | 11.60245 | 1.28778 | 36837 ft | 489 kts | 166° |
| 2026-04-26 02:28 | 11.53679 | 1.30604 | 36834 ft | 489 kts | 166° |
| 2026-04-26 02:28 | 11.47119 | 1.32427 | 36831 ft | 488 kts | 166° |
| 2026-04-26 02:29 | 11.40564 | 1.34248 | 36838 ft | 488 kts | 166° |
| 2026-04-26 02:29 | 11.34012 | 1.36068 | 36836 ft | 488 kts | 166° |
| 2026-04-26 02:30 | 11.27492 | 1.37877 | 36844 ft | 487 kts | 166° |
| 2026-04-26 02:30 | 11.20953 | 1.39691 | 36842 ft | 487 kts | 166° |
| 2026-04-26 02:31 | 11.14421 | 1.41503 | 36842 ft | 486 kts | 166° |
| 2026-04-26 02:31 | 11.07901 | 1.43310 | 36844 ft | 486 kts | 165° |
| 2026-04-26 02:32 | 11.01378 | 1.45117 | 36845 ft | 486 kts | 166° |
| 2026-04-26 02:32 | 10.94872 | 1.46984 | 36834 ft | 486 kts | 164° |
| 2026-04-26 02:33 | 10.88392 | 1.48944 | 36842 ft | 486 kts | 164° |
| 2026-04-26 02:33 | 10.81911 | 1.50906 | 36855 ft | 486 kts | 164° |
| 2026-04-26 02:34 | 10.76517 | 1.52526 | 36851 ft | 486 kts | 165° |
| 2026-04-26 02:34 | 10.70031 | 1.54465 | 36861 ft | 486 kts | 164° |
| 2026-04-26 02:35 | 10.63550 | 1.56401 | 36870 ft | 485 kts | 164° |
| 2026-04-26 02:35 | 10.57081 | 1.58333 | 36864 ft | 484 kts | 165° |
| 2026-04-26 02:36 | 10.50623 | 1.60261 | 36868 ft | 483 kts | 164° |
| 2026-04-26 02:36 | 10.44172 | 1.62186 | 36868 ft | 482 kts | 164° |
| 2026-04-26 02:37 | 10.37740 | 1.64106 | 36873 ft | 481 kts | 164° |
| 2026-04-26 02:37 | 10.31357 | 1.66009 | 36870 ft | 481 kts | 164° |
| 2026-04-26 02:38 | 10.24929 | 1.67924 | 36877 ft | 482 kts | 164° |
| 2026-04-26 02:38 | 10.18492 | 1.69842 | 36878 ft | 483 kts | 164° |
| 2026-04-26 02:39 | 10.12034 | 1.71765 | 36879 ft | 483 kts | 164° |
| 2026-04-26 02:39 | 10.05571 | 1.73689 | 36881 ft | 484 kts | 164° |
| 2026-04-26 02:40 | 9.99096 | 1.75616 | 36885 ft | 485 kts | 164° |
| 2026-04-26 02:40 | 9.92609 | 1.77546 | 36890 ft | 485 kts | 164° |
| 2026-04-26 02:41 | 9.86137 | 1.79470 | 36880 ft | 485 kts | 164° |
| 2026-04-26 02:41 | 9.79693 | 1.81385 | 36885 ft | 484 kts | 164° |
| 2026-04-26 02:42 | 9.73228 | 1.83306 | 36892 ft | 483 kts | 165° |
| 2026-04-26 02:42 | 9.66797 | 1.85216 | 36888 ft | 481 kts | 164° |
| 2026-04-26 02:43 | 9.57168 | 1.88075 | 36894 ft | 480 kts | 164° |
| 2026-04-26 02:43 | 9.50750 | 1.89979 | 36895 ft | 480 kts | 164° |
| 2026-04-26 02:44 | 9.44329 | 1.91873 | 36903 ft | 480 kts | 165° |
| 2026-04-26 02:44 | 9.37877 | 1.93678 | 36892 ft | 481 kts | 165° |
| 2026-04-26 02:45 | 9.31466 | 1.95442 | 36899 ft | 481 kts | 165° |
| 2026-04-26 02:45 | 9.25000 | 1.97231 | 36900 ft | 482 kts | 165° |
| 2026-04-26 02:46 | 9.18531 | 1.99029 | 36898 ft | 482 kts | 165° |
| 2026-04-26 02:46 | 9.12060 | 2.00831 | 36898 ft | 482 kts | 165° |
| 2026-04-26 02:47 | 9.05587 | 2.02633 | 36906 ft | 482 kts | 165° |
| 2026-04-26 02:47 | 8.99114 | 2.04433 | 36909 ft | 482 kts | 165° |
| 2026-04-26 02:48 | 8.92639 | 2.06232 | 36903 ft | 483 kts | 165° |
| 2026-04-26 02:48 | 8.86162 | 2.08032 | 36907 ft | 483 kts | 165° |
| 2026-04-26 02:49 | 8.79684 | 2.09831 | 36897 ft | 483 kts | 165° |
| 2026-04-26 02:49 | 8.73197 | 2.11632 | 36906 ft | 483 kts | 165° |
| 2026-04-26 02:50 | 8.66757 | 2.13420 | 36911 ft | 483 kts | 165° |
| 2026-04-26 02:50 | 8.60275 | 2.15218 | 36907 ft | 484 kts | 165° |
| 2026-04-26 02:51 | 8.53779 | 2.17019 | 36910 ft | 484 kts | 165° |
| 2026-04-26 02:51 | 8.47277 | 2.18822 | 36909 ft | 485 kts | 165° |
| 2026-04-26 02:52 | 8.40765 | 2.20627 | 36908 ft | 485 kts | 165° |
| 2026-04-26 02:52 | 8.34258 | 2.22429 | 36910 ft | 485 kts | 165° |
| 2026-04-26 02:53 | 8.27735 | 2.24236 | 36907 ft | 485 kts | 165° |
| 2026-04-26 02:53 | 8.21269 | 2.26027 | 36904 ft | 485 kts | 165° |
| 2026-04-26 02:54 | 8.14760 | 2.27828 | 36897 ft | 485 kts | 165° |
| 2026-04-26 02:54 | 8.08248 | 2.29630 | 36910 ft | 485 kts | 165° |
| 2026-04-26 02:55 | 8.01748 | 2.31428 | 36904 ft | 484 kts | 165° |
| 2026-04-26 02:55 | 7.95259 | 2.33223 | 36897 ft | 483 kts | 164° |
| 2026-04-26 02:56 | 7.88771 | 2.34988 | 36905 ft | 482 kts | 167° |
| 2026-04-26 02:56 | 7.82142 | 2.35894 | 36903 ft | 481 kts | 178° |
| 2026-04-26 02:57 | 7.75487 | 2.36016 | 36913 ft | 481 kts | 179° |
| 2026-04-26 02:57 | 7.68797 | 2.36124 | 36910 ft | 481 kts | 178° |
| 2026-04-26 02:58 | 7.62106 | 2.36262 | 36900 ft | 481 kts | 178° |
| 2026-04-26 02:58 | 7.55411 | 2.36418 | 36895 ft | 481 kts | 178° |
| 2026-04-26 02:59 | 7.48706 | 2.36577 | 36905 ft | 481 kts | 178° |
| 2026-04-26 02:59 | 7.42043 | 2.36733 | 36906 ft | 482 kts | 178° |
| 2026-04-26 03:00 | 7.35295 | 2.36890 | 36897 ft | 482 kts | 178° |
| 2026-04-26 03:00 | 7.28638 | 2.37046 | 36908 ft | 482 kts | 178° |
| 2026-04-26 03:01 | 7.21945 | 2.37202 | 36909 ft | 482 kts | 178° |
| 2026-04-26 03:01 | 7.15243 | 2.37358 | 36905 ft | 482 kts | 178° |
| 2026-04-26 03:02 | 7.08540 | 2.37514 | 36897 ft | 482 kts | 178° |
| 2026-04-26 03:02 | 7.01838 | 2.37671 | 36897 ft | 482 kts | 178° |
| 2026-04-26 03:03 | 6.95137 | 2.37827 | 36891 ft | 481 kts | 178° |
| 2026-04-26 03:03 | 6.88439 | 2.37983 | 36895 ft | 481 kts | 178° |
| 2026-04-26 03:04 | 6.81741 | 2.38138 | 36887 ft | 481 kts | 178° |
| 2026-04-26 03:04 | 6.75053 | 2.38299 | 36884 ft | 481 kts | 178° |
| 2026-04-26 03:05 | 6.68359 | 2.38473 | 36887 ft | 481 kts | 178° |
| 2026-04-26 03:05 | 6.61666 | 2.38647 | 36891 ft | 481 kts | 178° |
| 2026-04-26 03:06 | 6.54964 | 2.38819 | 36890 ft | 481 kts | 178° |
| 2026-04-26 03:06 | 6.48316 | 2.38989 | 36882 ft | 481 kts | 178° |
| 2026-04-26 03:07 | 6.41624 | 2.39161 | 36887 ft | 481 kts | 177° |
| 2026-04-26 03:07 | 6.34968 | 2.39710 | 36877 ft | 479 kts | 169° |
| 2026-04-26 03:08 | 6.28526 | 2.41349 | 36887 ft | 477 kts | 163° |
| 2026-04-26 03:08 | 6.22132 | 2.43181 | 36877 ft | 477 kts | 163° |
| 2026-04-26 03:09 | 6.15733 | 2.44960 | 36885 ft | 477 kts | 164° |
| 2026-04-26 03:09 | 6.09338 | 2.46719 | 36884 ft | 477 kts | 164° |
| 2026-04-26 03:10 | 6.02962 | 2.48441 | 36875 ft | 477 kts | 164° |
| 2026-04-26 03:10 | 5.96547 | 2.50171 | 36873 ft | 477 kts | 164° |
| 2026-04-26 03:11 | 5.90124 | 2.51909 | 36881 ft | 478 kts | 164° |
| 2026-04-26 03:11 | 5.83715 | 2.53657 | 36883 ft | 478 kts | 164° |
| 2026-04-26 03:12 | 5.77291 | 2.55417 | 36881 ft | 478 kts | 164° |
| 2026-04-26 03:12 | 5.70871 | 2.57174 | 36883 ft | 478 kts | 164° |
| 2026-04-26 03:13 | 5.64447 | 2.58931 | 36879 ft | 479 kts | 164° |
| 2026-04-26 03:13 | 5.58013 | 2.60689 | 36880 ft | 479 kts | 164° |
| 2026-04-26 03:14 | 5.51584 | 2.62445 | 36876 ft | 479 kts | 164° |
| 2026-04-26 03:14 | 5.45191 | 2.64192 | 36882 ft | 479 kts | 164° |
| 2026-04-26 03:15 | 5.38764 | 2.65947 | 36879 ft | 478 kts | 164° |
| 2026-04-26 03:15 | 5.32340 | 2.67701 | 36881 ft | 478 kts | 163° |
| 2026-04-26 03:16 | 5.25913 | 2.69455 | 36878 ft | 478 kts | 163° |
| 2026-04-26 03:16 | 5.19497 | 2.71207 | 36879 ft | 478 kts | 163° |
| 2026-04-26 03:17 | 5.13120 | 2.72947 | 36881 ft | 477 kts | 163° |
| 2026-04-26 03:17 | 5.06710 | 2.74696 | 36883 ft | 477 kts | 163° |
| 2026-04-26 03:18 | 5.00302 | 2.76444 | 36878 ft | 477 kts | 163° |
| 2026-04-26 03:18 | 4.93894 | 2.78192 | 36883 ft | 477 kts | 163° |
| 2026-04-26 03:19 | 4.87484 | 2.79940 | 36881 ft | 478 kts | 163° |
| 2026-04-26 03:19 | 4.81049 | 2.81695 | 36884 ft | 479 kts | 163° |
| 2026-04-26 03:20 | 4.74602 | 2.83455 | 36887 ft | 480 kts | 163° |
| 2026-04-26 03:20 | 4.68151 | 2.85216 | 36890 ft | 481 kts | 163° |
| 2026-04-26 03:21 | 4.61734 | 2.86967 | 36894 ft | 481 kts | 163° |
| 2026-04-26 03:21 | 4.55270 | 2.88731 | 36883 ft | 481 kts | 163° |
| 2026-04-26 03:22 | 4.48798 | 2.90496 | 36887 ft | 481 kts | 163° |
| 2026-04-26 03:22 | 4.42341 | 2.92258 | 36886 ft | 481 kts | 163° |
| 2026-04-26 03:23 | 4.35872 | 2.94022 | 36886 ft | 481 kts | 163° |
| 2026-04-26 03:23 | 4.30496 | 2.95488 | 36883 ft | 481 kts | 163° |
| 2026-04-26 03:24 | 4.24042 | 2.97247 | 36886 ft | 480 kts | 163° |
| 2026-04-26 03:24 | 4.17583 | 2.99008 | 36884 ft | 480 kts | 163° |
| 2026-04-26 03:25 | 4.11133 | 3.00766 | 36891 ft | 481 kts | 163° |
| 2026-04-26 03:25 | 4.04704 | 3.02531 | 36887 ft | 482 kts | 161° |
| 2026-04-26 03:26 | 3.98609 | 3.05251 | 36902 ft | 480 kts | 148° |
| 2026-04-26 03:26 | 3.93201 | 3.09154 | 36899 ft | 479 kts | 140° |
| 2026-04-26 03:27 | 3.88050 | 3.13398 | 36896 ft | 480 kts | 139° |
| 2026-04-26 03:27 | 3.82881 | 3.17651 | 36896 ft | 480 kts | 140° |
| 2026-04-26 03:28 | 3.77694 | 3.21876 | 36896 ft | 480 kts | 140° |
| 2026-04-26 03:28 | 3.72498 | 3.26085 | 36884 ft | 480 kts | 140° |
| 2026-04-26 03:29 | 3.67308 | 3.30285 | 36892 ft | 479 kts | 140° |
| 2026-04-26 03:29 | 3.62158 | 3.34455 | 36892 ft | 478 kts | 140° |
| 2026-04-26 03:30 | 3.56981 | 3.38646 | 36893 ft | 478 kts | 140° |
| 2026-04-26 03:30 | 3.51818 | 3.42827 | 36895 ft | 477 kts | 140° |
| 2026-04-26 03:31 | 3.46659 | 3.47003 | 36892 ft | 477 kts | 140° |
| 2026-04-26 03:31 | 3.41501 | 3.51178 | 36896 ft | 477 kts | 140° |
| 2026-04-26 03:32 | 3.36341 | 3.55354 | 36897 ft | 477 kts | 140° |
| 2026-04-26 03:32 | 3.31179 | 3.59531 | 36891 ft | 477 kts | 140° |
| 2026-04-26 03:33 | 3.26048 | 3.63683 | 36891 ft | 478 kts | 140° |
| 2026-04-26 03:33 | 3.20879 | 3.67864 | 36899 ft | 478 kts | 140° |
| 2026-04-26 03:34 | 3.15708 | 3.72047 | 36894 ft | 478 kts | 140° |
| 2026-04-26 03:34 | 3.10534 | 3.76231 | 36898 ft | 478 kts | 140° |
| 2026-04-26 03:35 | 3.05358 | 3.80416 | 36892 ft | 478 kts | 140° |
| 2026-04-26 03:35 | 3.00173 | 3.84609 | 36894 ft | 480 kts | 140° |
| 2026-04-26 03:36 | 2.94956 | 3.88826 | 36902 ft | 482 kts | 140° |
| 2026-04-26 03:36 | 2.89729 | 3.93051 | 36902 ft | 484 kts | 140° |
| 2026-04-26 03:37 | 2.84486 | 3.97289 | 36897 ft | 485 kts | 140° |
| 2026-04-26 03:37 | 2.79269 | 4.01505 | 36897 ft | 485 kts | 140° |
| 2026-04-26 03:38 | 2.74017 | 4.05748 | 36895 ft | 485 kts | 140° |
| 2026-04-26 03:38 | 2.68763 | 4.09993 | 36900 ft | 485 kts | 140° |
| 2026-04-26 03:39 | 2.63521 | 4.14228 | 36901 ft | 484 kts | 140° |
| 2026-04-26 03:39 | 2.58318 | 4.18431 | 36900 ft | 483 kts | 140° |
| 2026-04-26 03:40 | 2.53099 | 4.22646 | 36899 ft | 482 kts | 140° |
| 2026-04-26 03:40 | 2.47879 | 4.26862 | 36908 ft | 482 kts | 140° |
| 2026-04-26 03:41 | 2.42659 | 4.31077 | 36903 ft | 482 kts | 140° |
| 2026-04-26 03:41 | 2.37436 | 4.35294 | 36905 ft | 483 kts | 140° |
| 2026-04-26 03:42 | 2.32210 | 4.39513 | 36904 ft | 483 kts | 140° |
| 2026-04-26 03:42 | 2.26980 | 4.43735 | 36906 ft | 483 kts | 140° |
| 2026-04-26 03:43 | 2.21736 | 4.47968 | 36906 ft | 484 kts | 140° |
| 2026-04-26 03:43 | 2.16489 | 4.52204 | 36907 ft | 485 kts | 140° |
| 2026-04-26 03:44 | 2.11233 | 4.56445 | 36912 ft | 486 kts | 140° |
| 2026-04-26 03:44 | 2.06006 | 4.60663 | 36905 ft | 486 kts | 140° |
| 2026-04-26 03:45 | 2.00735 | 4.64915 | 36912 ft | 487 kts | 140° |
| 2026-04-26 03:45 | 1.95458 | 4.69173 | 36910 ft | 488 kts | 140° |
| 2026-04-26 03:46 | 1.90176 | 4.73435 | 36907 ft | 488 kts | 140° |
| 2026-04-26 03:47 | 1.82252 | 4.79827 | 36909 ft | 488 kts | 140° |
| 2026-04-26 03:47 | 1.76974 | 4.84084 | 36908 ft | 487 kts | 140° |
| 2026-04-26 03:48 | 1.71697 | 4.88340 | 36913 ft | 487 kts | 140° |
| 2026-04-26 03:48 | 1.66430 | 4.92588 | 36910 ft | 486 kts | 140° |
| 2026-04-26 03:49 | 1.61168 | 4.96832 | 36907 ft | 486 kts | 140° |
| 2026-04-26 03:49 | 1.55905 | 5.01075 | 36912 ft | 486 kts | 140° |
| 2026-04-26 03:50 | 1.50642 | 5.05319 | 36911 ft | 486 kts | 140° |
| 2026-04-26 03:50 | 1.45378 | 5.09563 | 36913 ft | 486 kts | 140° |
| 2026-04-26 03:51 | 1.40111 | 5.13809 | 36912 ft | 486 kts | 140° |
| 2026-04-26 03:51 | 1.34879 | 5.18028 | 36912 ft | 486 kts | 140° |
| 2026-04-26 03:52 | 1.29609 | 5.22276 | 36909 ft | 487 kts | 140° |
| 2026-04-26 03:52 | 1.24338 | 5.26524 | 36909 ft | 487 kts | 140° |
| 2026-04-26 03:53 | 1.19068 | 5.30773 | 36909 ft | 487 kts | 140° |
| 2026-04-26 03:53 | 1.13791 | 5.35027 | 36907 ft | 487 kts | 140° |
| 2026-04-26 03:54 | 1.08512 | 5.39282 | 36912 ft | 489 kts | 140° |
| 2026-04-26 03:54 | 1.03204 | 5.43561 | 36912 ft | 490 kts | 140° |
| 2026-04-26 03:55 | 0.97895 | 5.47860 | 36906 ft | 491 kts | 137° |
| 2026-04-26 03:55 | 0.93406 | 5.52965 | 36912 ft | 489 kts | 122° |
| 2026-04-26 03:56 | 0.90209 | 5.58933 | 36917 ft | 487 kts | 113° |
| 2026-04-26 03:56 | 0.87430 | 5.65074 | 36907 ft | 488 kts | 113° |
| 2026-04-26 03:57 | 0.84618 | 5.71246 | 36907 ft | 488 kts | 114° |
| 2026-04-26 03:57 | 0.81767 | 5.77404 | 36909 ft | 488 kts | 114° |
| 2026-04-26 03:58 | 0.78898 | 5.83561 | 36907 ft | 488 kts | 114° |
| 2026-04-26 03:58 | 0.76025 | 5.89725 | 36912 ft | 488 kts | 114° |
| 2026-04-26 03:59 | 0.73181 | 5.95832 | 36907 ft | 488 kts | 114° |
| 2026-04-26 03:59 | 0.70323 | 6.01972 | 36911 ft | 487 kts | 114° |
| 2026-04-26 04:00 | 0.67468 | 6.08106 | 36910 ft | 486 kts | 114° |
| 2026-04-26 04:00 | 0.64616 | 6.14232 | 36912 ft | 486 kts | 113° |
| 2026-04-26 04:01 | 0.61765 | 6.20356 | 36909 ft | 486 kts | 113° |
| 2026-04-26 04:01 | 0.58914 | 6.26479 | 36912 ft | 486 kts | 113° |
| 2026-04-26 04:02 | 0.56059 | 6.32610 | 36913 ft | 486 kts | 113° |
| 2026-04-26 04:02 | 0.53204 | 6.38743 | 36910 ft | 486 kts | 113° |
| 2026-04-26 04:03 | 0.50370 | 6.44831 | 36912 ft | 486 kts | 113° |
| 2026-04-26 04:03 | 0.47513 | 6.50967 | 36911 ft | 486 kts | 113° |
| 2026-04-26 04:04 | 0.44660 | 6.57093 | 36914 ft | 486 kts | 113° |
| 2026-04-26 04:04 | 0.41796 | 6.63208 | 36911 ft | 486 kts | 114° |
| 2026-04-26 04:05 | 0.38720 | 6.69232 | 36908 ft | 488 kts | 123° |
| 2026-04-26 04:05 | 0.34214 | 6.74303 | 36916 ft | 491 kts | 138° |
| 2026-04-26 04:06 | 0.28664 | 6.78305 | 36914 ft | 492 kts | 144° |
| 2026-04-26 04:06 | 0.23024 | 6.82165 | 36913 ft | 492 kts | 143° |
| 2026-04-26 04:07 | 0.17439 | 6.86046 | 36916 ft | 491 kts | 143° |
| 2026-04-26 04:07 | 0.11862 | 6.89971 | 36914 ft | 490 kts | 143° |
| 2026-04-26 04:08 | 0.06287 | 6.93907 | 36914 ft | 490 kts | 143° |
| 2026-04-26 04:08 | 0.00711 | 6.97842 | 36917 ft | 489 kts | 143° |
| 2026-04-26 04:09 | -0.04836 | 7.01753 | 36919 ft | 488 kts | 143° |
| 2026-04-26 04:09 | -0.10375 | 7.05658 | 36909 ft | 486 kts | 143° |
| 2026-04-26 04:10 | -0.15888 | 7.09544 | 36911 ft | 484 kts | 143° |
| 2026-04-26 04:10 | -0.21348 | 7.13394 | 36914 ft | 483 kts | 143° |
| 2026-04-26 04:11 | -0.26835 | 7.17263 | 36920 ft | 482 kts | 143° |
| 2026-04-26 04:11 | -0.32326 | 7.21135 | 36920 ft | 482 kts | 143° |
| 2026-04-26 04:12 | -0.37813 | 7.25005 | 36920 ft | 483 kts | 143° |
| 2026-04-26 04:12 | -0.43307 | 7.28879 | 36911 ft | 484 kts | 143° |
| 2026-04-26 04:13 | -0.48800 | 7.32770 | 36917 ft | 484 kts | 143° |
| 2026-04-26 04:13 | -0.54291 | 7.36666 | 36917 ft | 485 kts | 143° |
| 2026-04-26 04:14 | -0.58867 | 7.39911 | 36928 ft | 485 kts | 143° |
| 2026-04-26 04:14 | -0.64374 | 7.43816 | 36915 ft | 485 kts | 143° |
| 2026-04-26 04:15 | -0.69890 | 7.47728 | 36914 ft | 486 kts | 143° |
| 2026-04-26 04:15 | -0.75420 | 7.51610 | 36920 ft | 486 kts | 143° |
| 2026-04-26 04:16 | -0.80969 | 7.55457 | 36916 ft | 485 kts | 143° |
| 2026-04-26 04:16 | -0.86457 | 7.59303 | 36918 ft | 484 kts | 143° |
| 2026-04-26 04:17 | -0.91955 | 7.63182 | 36919 ft | 483 kts | 143° |
| 2026-04-26 04:17 | -0.97450 | 7.67054 | 36917 ft | 483 kts | 143° |
| 2026-04-26 04:18 | -1.02945 | 7.70923 | 36919 ft | 483 kts | 143° |
| 2026-04-26 04:18 | -1.08430 | 7.74803 | 36923 ft | 483 kts | 142° |
| 2026-04-26 04:19 | -1.13914 | 7.78692 | 36927 ft | 483 kts | 142° |
| 2026-04-26 04:19 | -1.19401 | 7.82581 | 36915 ft | 484 kts | 142° |
| 2026-04-26 04:20 | -1.24890 | 7.86471 | 36918 ft | 484 kts | 142° |
| 2026-04-26 04:20 | -1.30352 | 7.90342 | 36918 ft | 484 kts | 142° |
| 2026-04-26 04:21 | -1.35848 | 7.94234 | 36916 ft | 484 kts | 142° |
| 2026-04-26 04:21 | -1.41355 | 7.98112 | 36924 ft | 484 kts | 143° |
| 2026-04-26 04:22 | -1.46858 | 8.01982 | 36913 ft | 483 kts | 143° |
| 2026-04-26 04:22 | -1.52349 | 8.05850 | 36920 ft | 482 kts | 142° |
| 2026-04-26 04:23 | -1.57825 | 8.09708 | 36915 ft | 481 kts | 142° |
| 2026-04-26 04:23 | -1.63288 | 8.13558 | 36918 ft | 480 kts | 142° |
| 2026-04-26 04:24 | -1.68702 | 8.17374 | 36918 ft | 479 kts | 142° |
| 2026-04-26 04:24 | -1.74146 | 8.21210 | 36925 ft | 478 kts | 142° |
| 2026-04-26 04:25 | -1.79588 | 8.25044 | 36925 ft | 478 kts | 142° |
| 2026-04-26 04:25 | -1.85040 | 8.28888 | 36926 ft | 479 kts | 142° |
| 2026-04-26 04:26 | -1.90479 | 8.32722 | 36928 ft | 479 kts | 142° |
| 2026-04-26 04:26 | -1.95933 | 8.36569 | 36928 ft | 480 kts | 142° |
| 2026-04-26 04:27 | -2.01399 | 8.40425 | 36925 ft | 481 kts | 142° |
| 2026-04-26 04:27 | -2.06846 | 8.44266 | 36931 ft | 482 kts | 142° |
| 2026-04-26 04:28 | -2.12362 | 8.48157 | 36928 ft | 483 kts | 142° |
| 2026-04-26 04:28 | -2.17857 | 8.52036 | 36930 ft | 483 kts | 142° |
| 2026-04-26 04:29 | -2.23312 | 8.55888 | 36924 ft | 483 kts | 142° |
| 2026-04-26 04:29 | -2.28804 | 8.59766 | 36926 ft | 483 kts | 142° |
| 2026-04-26 04:30 | -2.34306 | 8.63653 | 36927 ft | 484 kts | 142° |
| 2026-04-26 04:30 | -2.39805 | 8.67537 | 36932 ft | 484 kts | 142° |
| 2026-04-26 04:31 | -2.45320 | 8.71433 | 36932 ft | 484 kts | 142° |
| 2026-04-26 04:31 | -2.50785 | 8.75294 | 36934 ft | 484 kts | 142° |
| 2026-04-26 04:32 | -2.56281 | 8.79178 | 36931 ft | 483 kts | 142° |
| 2026-04-26 04:32 | -2.61772 | 8.83058 | 36930 ft | 483 kts | 142° |
| 2026-04-26 04:33 | -2.67255 | 8.86933 | 36936 ft | 482 kts | 142° |
| 2026-04-26 04:33 | -2.72721 | 8.90798 | 36934 ft | 481 kts | 142° |
| 2026-04-26 04:34 | -2.78190 | 8.94665 | 36934 ft | 480 kts | 142° |
| 2026-04-26 04:34 | -2.83645 | 8.98521 | 36936 ft | 480 kts | 142° |
| 2026-04-26 04:35 | -2.89091 | 9.02367 | 36929 ft | 479 kts | 142° |
| 2026-04-26 04:35 | -2.94540 | 9.06218 | 36934 ft | 479 kts | 142° |
| 2026-04-26 04:36 | -2.99989 | 9.10070 | 36935 ft | 479 kts | 142° |
| 2026-04-26 04:36 | -3.05442 | 9.13926 | 36933 ft | 480 kts | 142° |
| 2026-04-26 04:37 | -3.10870 | 9.17765 | 36941 ft | 481 kts | 142° |
| 2026-04-26 04:37 | -3.16354 | 9.21644 | 36940 ft | 483 kts | 142° |
| 2026-04-26 04:38 | -3.21856 | 9.25536 | 36940 ft | 483 kts | 142° |
| 2026-04-26 04:38 | -3.27352 | 9.29424 | 36940 ft | 484 kts | 142° |
| 2026-04-26 04:39 | -3.32822 | 9.33296 | 36943 ft | 484 kts | 142° |
| 2026-04-26 04:39 | -3.38324 | 9.37189 | 36944 ft | 484 kts | 142° |
| 2026-04-26 04:40 | -3.43820 | 9.41082 | 36941 ft | 484 kts | 141° |
| 2026-04-26 04:40 | -3.49313 | 9.44976 | 36939 ft | 483 kts | 141° |
| 2026-04-26 04:41 | -3.54793 | 9.48862 | 36942 ft | 482 kts | 142° |
| 2026-04-26 04:41 | -3.60270 | 9.52746 | 36943 ft | 482 kts | 142° |
| 2026-04-26 04:42 | -3.65714 | 9.56607 | 36939 ft | 482 kts | 142° |
| 2026-04-26 04:42 | -3.71225 | 9.60516 | 36939 ft | 482 kts | 142° |
| 2026-04-26 04:43 | -3.76676 | 9.64384 | 36930 ft | 482 kts | 142° |
| 2026-04-26 04:43 | -3.82153 | 9.68272 | 36937 ft | 483 kts | 142° |
| 2026-04-26 04:44 | -3.87652 | 9.72171 | 36943 ft | 484 kts | 142° |
| 2026-04-26 04:44 | -3.93159 | 9.76073 | 36943 ft | 485 kts | 142° |
| 2026-04-26 04:45 | -3.98682 | 9.79989 | 36944 ft | 486 kts | 142° |
| 2026-04-26 04:45 | -4.04170 | 9.83881 | 36950 ft | 487 kts | 142° |
| 2026-04-26 04:46 | -4.09708 | 9.87810 | 36948 ft | 487 kts | 142° |
| 2026-04-26 04:46 | -4.15244 | 9.91739 | 36946 ft | 488 kts | 142° |
| 2026-04-26 04:47 | -4.20782 | 9.95669 | 36942 ft | 488 kts | 142° |
| 2026-04-26 04:47 | -4.26325 | 9.99602 | 36946 ft | 487 kts | 142° |
| 2026-04-26 04:48 | -4.34621 | 10.05484 | 36947 ft | 487 kts | 142° |
| 2026-04-26 04:48 | -4.40157 | 10.09412 | 36948 ft | 487 kts | 142° |
| 2026-04-26 04:49 | -4.45646 | 10.13309 | 36945 ft | 487 kts | 142° |
| 2026-04-26 04:49 | -4.51170 | 10.17230 | 36945 ft | 486 kts | 141° |
| 2026-04-26 04:50 | -4.56689 | 10.21149 | 36951 ft | 486 kts | 141° |
| 2026-04-26 04:50 | -4.62214 | 10.25075 | 36948 ft | 486 kts | 141° |
| 2026-04-26 04:51 | -4.67733 | 10.29000 | 36945 ft | 486 kts | 141° |
| 2026-04-26 04:51 | -4.73245 | 10.32939 | 36946 ft | 487 kts | 141° |
| 2026-04-26 04:52 | -4.78767 | 10.36887 | 36949 ft | 487 kts | 141° |
| 2026-04-26 04:52 | -4.84287 | 10.40831 | 36948 ft | 487 kts | 141° |
| 2026-04-26 04:53 | -4.89784 | 10.44749 | 36944 ft | 488 kts | 141° |
| 2026-04-26 04:53 | -4.95332 | 10.48680 | 36949 ft | 488 kts | 141° |
| 2026-04-26 04:54 | -5.00877 | 10.52611 | 36945 ft | 488 kts | 141° |
| 2026-04-26 04:54 | -5.06422 | 10.56547 | 36945 ft | 488 kts | 141° |
| 2026-04-26 04:55 | -5.11968 | 10.60485 | 36948 ft | 488 kts | 141° |
| 2026-04-26 04:55 | -5.17478 | 10.64400 | 36949 ft | 488 kts | 141° |
| 2026-04-26 04:56 | -5.23025 | 10.68341 | 36945 ft | 488 kts | 141° |
| 2026-04-26 04:56 | -5.28575 | 10.72285 | 36945 ft | 488 kts | 141° |
| 2026-04-26 04:57 | -5.34122 | 10.76207 | 36946 ft | 487 kts | 141° |
| 2026-04-26 04:57 | -5.39679 | 10.80104 | 36947 ft | 487 kts | 141° |
| 2026-04-26 04:58 | -5.45237 | 10.84002 | 36946 ft | 487 kts | 141° |
| 2026-04-26 04:58 | -5.50782 | 10.87896 | 36947 ft | 486 kts | 141° |
| 2026-04-26 04:59 | -5.56322 | 10.91792 | 36950 ft | 486 kts | 141° |
| 2026-04-26 04:59 | -5.61854 | 10.95683 | 36945 ft | 486 kts | 141° |
| 2026-04-26 05:00 | -5.67350 | 10.99549 | 36953 ft | 485 kts | 141° |
| 2026-04-26 05:00 | -5.72872 | 11.03434 | 36949 ft | 484 kts | 141° |
| 2026-04-26 05:01 | -5.78387 | 11.07315 | 36949 ft | 484 kts | 141° |
| 2026-04-26 05:01 | -5.83905 | 11.11199 | 36948 ft | 484 kts | 141° |
| 2026-04-26 05:02 | -5.89413 | 11.15078 | 36949 ft | 483 kts | 141° |
| 2026-04-26 05:02 | -5.94928 | 11.18962 | 36949 ft | 483 kts | 141° |
| 2026-04-26 05:03 | -6.00400 | 11.22817 | 36944 ft | 484 kts | 141° |
| 2026-04-26 05:03 | -6.05921 | 11.26708 | 36952 ft | 484 kts | 141° |
| 2026-04-26 05:04 | -6.11450 | 11.30605 | 36956 ft | 485 kts | 141° |
| 2026-04-26 05:04 | -6.16989 | 11.34510 | 36948 ft | 486 kts | 141° |
| 2026-04-26 05:05 | -6.22490 | 11.38389 | 36950 ft | 486 kts | 141° |
| 2026-04-26 05:05 | -6.28031 | 11.42297 | 36951 ft | 487 kts | 141° |
| 2026-04-26 05:06 | -6.32678 | 11.45576 | 36951 ft | 487 kts | 141° |
| 2026-04-26 05:06 | -6.38224 | 11.49490 | 36950 ft | 487 kts | 141° |
| 2026-04-26 05:07 | -6.43736 | 11.53380 | 36951 ft | 487 kts | 141° |
| 2026-04-26 05:07 | -6.49292 | 11.57304 | 36951 ft | 488 kts | 141° |
| 2026-04-26 05:08 | -6.54845 | 11.61226 | 36951 ft | 488 kts | 141° |
| 2026-04-26 05:08 | -6.60398 | 11.65149 | 36950 ft | 488 kts | 141° |
| 2026-04-26 05:09 | -6.65966 | 11.69065 | 36954 ft | 487 kts | 142° |
| 2026-04-26 05:09 | -6.71515 | 11.72979 | 36943 ft | 487 kts | 142° |
| 2026-04-26 05:10 | -6.77022 | 11.76876 | 36953 ft | 486 kts | 142° |
| 2026-04-26 05:10 | -6.82554 | 11.80793 | 36953 ft | 486 kts | 142° |
| 2026-04-26 05:11 | -6.88072 | 11.84700 | 36952 ft | 486 kts | 142° |
| 2026-04-26 05:11 | -6.93601 | 11.88616 | 36954 ft | 486 kts | 142° |
| 2026-04-26 05:12 | -6.99133 | 11.92534 | 36952 ft | 486 kts | 142° |
| 2026-04-26 05:12 | -7.04656 | 11.96447 | 36953 ft | 486 kts | 142° |
| 2026-04-26 05:13 | -7.10192 | 12.00371 | 36950 ft | 486 kts | 142° |
| 2026-04-26 05:13 | -7.15731 | 12.04300 | 36952 ft | 487 kts | 142° |
| 2026-04-26 05:14 | -7.21193 | 12.08330 | 36947 ft | 485 kts | 137° |
| 2026-04-26 05:14 | -7.26008 | 12.13056 | 36950 ft | 483 kts | 131° |
| 2026-04-26 05:15 | -7.30689 | 12.17852 | 36954 ft | 483 kts | 131° |
| 2026-04-26 05:15 | -7.35422 | 12.22670 | 36953 ft | 483 kts | 132° |
| 2026-04-26 05:16 | -7.40163 | 12.27473 | 36883 ft | 485 kts | 132° |
| 2026-04-26 05:16 | -7.42570 | 12.29913 | 36025 ft | 495 kts | 132° |
| 2026-04-26 05:16 | -7.45003 | 12.32378 | 35212 ft | 495 kts | 133° |
| 2026-04-26 05:17 | -7.47426 | 12.34831 | 34276 ft | 492 kts | 133° |
| 2026-04-26 05:17 | -7.49821 | 12.37256 | 33245 ft | 484 kts | 133° |
| 2026-04-26 05:17 | -7.52190 | 12.39654 | 32250 ft | 482 kts | 133° |
| 2026-04-26 05:17 | -7.54568 | 12.42065 | 31227 ft | 486 kts | 133° |
| 2026-04-26 05:18 | -7.56922 | 12.44452 | 30429 ft | 487 kts | 133° |
| 2026-04-26 05:18 | -7.59303 | 12.46867 | 29630 ft | 485 kts | 133° |
| 2026-04-26 05:18 | -7.61678 | 12.49275 | 28856 ft | 481 kts | 133° |
| 2026-04-26 05:18 | -7.64028 | 12.51658 | 28130 ft | 477 kts | 133° |
| 2026-04-26 05:19 | -7.66357 | 12.54020 | 27439 ft | 473 kts | 133° |
| 2026-04-26 05:19 | -7.68665 | 12.56362 | 26760 ft | 469 kts | 133° |
| 2026-04-26 05:19 | -7.70953 | 12.58684 | 26083 ft | 465 kts | 133° |
| 2026-04-26 05:19 | -7.73220 | 12.60984 | 25408 ft | 462 kts | 133° |
| 2026-04-26 05:20 | -7.75485 | 12.63283 | 24746 ft | 459 kts | 133° |
| 2026-04-26 05:20 | -7.77731 | 12.65564 | 24068 ft | 457 kts | 133° |
| 2026-04-26 05:20 | -7.79962 | 12.67829 | 23370 ft | 455 kts | 133° |
| 2026-04-26 05:20 | -7.82186 | 12.70088 | 22622 ft | 452 kts | 133° |
| 2026-04-26 05:21 | -7.84392 | 12.72330 | 21942 ft | 448 kts | 133° |
| 2026-04-26 05:21 | -7.86577 | 12.74549 | 21280 ft | 444 kts | 133° |
| 2026-04-26 05:21 | -7.88741 | 12.76748 | 20651 ft | 440 kts | 134° |
| 2026-04-26 05:21 | -7.90862 | 12.78904 | 20023 ft | 436 kts | 134° |
| 2026-04-26 05:22 | -7.93014 | 12.81091 | 19387 ft | 433 kts | 134° |
| 2026-04-26 05:22 | -7.95091 | 12.83204 | 18748 ft | 422 kts | 134° |
| 2026-04-26 05:22 | -7.97120 | 12.85267 | 18119 ft | 406 kts | 134° |
| 2026-04-26 05:22 | -7.99074 | 12.87253 | 17470 ft | 392 kts | 134° |
| 2026-04-26 05:23 | -8.00965 | 12.89175 | 16871 ft | 379 kts | 134° |
| 2026-04-26 05:23 | -8.02807 | 12.91048 | 16326 ft | 376 kts | 134° |
| 2026-04-26 05:23 | -8.04667 | 12.92943 | 15781 ft | 383 kts | 134° |
| 2026-04-26 05:23 | -8.06567 | 12.94879 | 15206 ft | 392 kts | 134° |
| 2026-04-26 05:24 | -8.08493 | 12.96840 | 14609 ft | 394 kts | 134° |
| 2026-04-26 05:24 | -8.10418 | 12.98799 | 14019 ft | 393 kts | 133° |
| 2026-04-26 05:24 | -8.12337 | 13.00752 | 13384 ft | 391 kts | 133° |
| 2026-04-26 05:24 | -8.14242 | 13.02690 | 12755 ft | 384 kts | 133° |
| 2026-04-26 05:25 | -8.16080 | 13.04559 | 12171 ft | 367 kts | 133° |
| 2026-04-26 05:25 | -8.17845 | 13.06356 | 11742 ft | 357 kts | 133° |
| 2026-04-26 05:25 | -8.19622 | 13.08167 | 11394 ft | 368 kts | 133° |
| 2026-04-26 05:25 | -8.21433 | 13.10013 | 11029 ft | 371 kts | 133° |
| 2026-04-26 05:26 | -8.23243 | 13.11858 | 10651 ft | 368 kts | 133° |
| 2026-04-26 05:26 | -8.25037 | 13.13687 | 10276 ft | 365 kts | 133° |
| 2026-04-26 05:26 | -8.26810 | 13.15493 | 10026 ft | 359 kts | 133° |
| 2026-04-26 05:26 | -8.28531 | 13.17248 | 9754 ft | 355 kts | 133° |
| 2026-04-26 05:27 | -8.30258 | 13.19008 | 9409 ft | 352 kts | 133° |
| 2026-04-26 05:27 | -8.31978 | 13.20762 | 9087 ft | 352 kts | 133° |
| 2026-04-26 05:27 | -8.33702 | 13.22521 | 8888 ft | 352 kts | 133° |
| 2026-04-26 05:27 | -8.35458 | 13.24314 | 8907 ft | 372 kts | 133° |
| 2026-04-26 05:28 | -8.37293 | 13.26188 | 8751 ft | 365 kts | 133° |
| 2026-04-26 05:28 | -8.39011 | 13.27938 | 8402 ft | 336 kts | 133° |
| 2026-04-26 05:28 | -8.40584 | 13.29539 | 8094 ft | 306 kts | 132° |
| 2026-04-26 05:28 | -8.42011 | 13.30993 | 7894 ft | 277 kts | 132° |
| 2026-04-26 05:29 | -8.43316 | 13.32322 | 7656 ft | 255 kts | 131° |
| 2026-04-26 05:29 | -8.44535 | 13.33566 | 7239 ft | 243 kts | 131° |
| 2026-04-26 05:29 | -8.45693 | 13.34749 | 6752 ft | 237 kts | 131° |
| 2026-04-26 05:29 | -8.46845 | 13.35925 | 6275 ft | 234 kts | 130° |
| 2026-04-26 05:30 | -8.48114 | 13.37043 | 6152 ft | 250 kts | 148° |
| 2026-04-26 05:30 | -8.49831 | 13.37473 | 5838 ft | 257 kts | 172° |
| 2026-04-26 05:30 | -8.51583 | 13.37588 | 5561 ft | 247 kts | 172° |
| 2026-04-26 05:30 | -8.53267 | 13.37720 | 5331 ft | 240 kts | 171° |
| 2026-04-26 05:31 | -8.54916 | 13.37859 | 5113 ft | 235 kts | 171° |
| 2026-04-26 05:31 | -8.56529 | 13.37999 | 4890 ft | 230 kts | 171° |
| 2026-04-26 05:31 | -8.58106 | 13.38140 | 4690 ft | 224 kts | 171° |
| 2026-04-26 05:31 | -8.59643 | 13.38281 | 4461 ft | 219 kts | 171° |
| 2026-04-26 05:32 | -8.61149 | 13.38419 | 4269 ft | 216 kts | 171° |
| 2026-04-26 05:32 | -8.62643 | 13.38558 | 4078 ft | 215 kts | 171° |
| 2026-04-26 05:32 | -8.64127 | 13.38697 | 3879 ft | 214 kts | 171° |
| 2026-04-26 05:32 | -8.65603 | 13.38836 | 3691 ft | 211 kts | 172° |
| 2026-04-26 05:33 | -8.67035 | 13.38970 | 3551 ft | 202 kts | 172° |
| 2026-04-26 05:33 | -8.68427 | 13.39101 | 3327 ft | 198 kts | 172° |
| 2026-04-26 05:33 | -8.69777 | 13.39189 | 3123 ft | 192 kts | 184° |
| 2026-04-26 05:33 | -8.71003 | 13.38654 | 3056 ft | 198 kts | 216° |
| 2026-04-26 05:34 | -8.72057 | 13.37781 | 3012 ft | 199 kts | 218° |
| 2026-04-26 05:34 | -8.73132 | 13.36877 | 3009 ft | 198 kts | 220° |
| 2026-04-26 05:34 | -8.74125 | 13.35925 | 2998 ft | 196 kts | 224° |
| 2026-04-26 05:34 | -8.75053 | 13.34953 | 2990 ft | 194 kts | 225° |
| 2026-04-26 05:35 | -8.75984 | 13.33956 | 2839 ft | 199 kts | 225° |
| 2026-04-26 05:35 | -8.76916 | 13.32952 | 2637 ft | 188 kts | 225° |
| 2026-04-26 05:35 | -8.77785 | 13.32017 | 2339 ft | 176 kts | 225° |
| 2026-04-26 05:35 | -8.78580 | 13.31160 | 2121 ft | 157 kts | 225° |
| 2026-04-26 05:36 | -8.79311 | 13.30375 | 1941 ft | 154 kts | 226° |
| 2026-04-26 05:36 | -8.80043 | 13.29588 | 1738 ft | 153 kts | 226° |
| 2026-04-26 05:36 | -8.80765 | 13.28811 | 1541 ft | 150 kts | 226° |
| 2026-04-26 05:36 | -8.81477 | 13.28045 | 1347 ft | 149 kts | 225° |
| 2026-04-26 05:37 | -8.82186 | 13.27284 | 1152 ft | 149 kts | 225° |
| 2026-04-26 05:37 | -8.82557 | 13.26882 | 1057 ft | 148 kts | 225° |
| 2026-04-26 05:37 | -8.83265 | 13.26123 | 875 ft | 146 kts | 225° |
| 2026-04-26 05:37 | -8.83965 | 13.25368 | 683 ft | 146 kts | 225° |
| 2026-04-26 05:38 | -8.84663 | 13.24620 | 510 ft | 146 kts | 225° |
| 2026-04-26 05:38 | -8.85363 | 13.23867 | 325 ft | 147 kts | 225° |
| 2026-04-26 05:38 | -8.86050 | 13.23139 | 264 ft | 133 kts | 225° |
| 2026-04-26 05:38 | -8.86567 | 13.22581 | 265 ft | 82 kts | 227° |
| 2026-04-26 05:39 | -8.86804 | 13.22327 | 264 ft | 21 kts | 227° |
| 2026-04-26 05:39 | -8.86842 | 13.22239 | 262 ft | 14 kts | 291° |
| 2026-04-26 05:39 | -8.86775 | 13.22218 | 263 ft | 14 kts | 24° |
| 2026-04-26 05:39 | -8.86715 | 13.22287 | 264 ft | 13 kts | 76° |
| 2026-04-26 05:40 | -8.86713 | 13.22381 | 264 ft | 13 kts | 88° |
| 2026-04-26 05:40 | -8.86674 | 13.22465 | 264 ft | 13 kts | 47° |
| 2026-04-26 05:40 | -8.86610 | 13.22535 | 265 ft | 13 kts | 48° |
| 2026-04-26 05:40 | -8.86546 | 13.22604 | 265 ft | 13 kts | 46° |
| 2026-04-26 05:41 | -8.86477 | 13.22668 | 264 ft | 14 kts | 27° |
| 2026-04-26 05:41 | -8.86379 | 13.22679 | 263 ft | 15 kts | 3° |
| 2026-04-26 05:41 | -8.86276 | 13.22684 | 263 ft | 15 kts | 4° |
| 2026-04-26 05:41 | -8.86190 | 13.22735 | 264 ft | 15 kts | 46° |
| 2026-04-26 05:42 | -8.86119 | 13.22810 | 263 ft | 15 kts | 47° |
| 2026-04-26 05:42 | -8.86049 | 13.22886 | 263 ft | 15 kts | 46° |
| 2026-04-26 05:42 | -8.85978 | 13.22962 | 263 ft | 15 kts | 46° |
| 2026-04-26 05:42 | -8.85904 | 13.23033 | 264 ft | 15 kts | 33° |
| 2026-04-26 05:43 | -8.85805 | 13.23057 | 264 ft | 15 kts | 3° |
| 2026-04-26 05:43 | -8.85703 | 13.23061 | 264 ft | 15 kts | 1° |
| 2026-04-26 05:43 | -8.85600 | 13.23064 | 264 ft | 15 kts | 2° |
| 2026-04-26 05:43 | -8.85505 | 13.23068 | 264 ft | 12 kts | 2° |
| 2026-04-26 05:44 | -8.85419 | 13.23071 | 265 ft | 12 kts | 1° |
| 2026-04-26 05:44 | -8.85340 | 13.23097 | 265 ft | 12 kts | 45° |
| 2026-04-26 05:44 | -8.85299 | 13.23175 | 265 ft | 13 kts | 68° |
| 2026-04-26 05:44 | -8.85266 | 13.23260 | 265 ft | 13 kts | 69° |
| 2026-04-26 05:45 | -8.85230 | 13.23346 | 265 ft | 13 kts | 66° |
| 2026-04-26 05:45 | -8.85195 | 13.23431 | 263 ft | 13 kts | 68° |
| 2026-04-26 05:45 | -8.85161 | 13.23516 | 263 ft | 13 kts | 68° |
| 2026-04-26 05:45 | -8.85126 | 13.23560 | 263 ft | 7 kts | 16° |
| 2026-04-26 05:46 | -8.85080 | 13.23553 | 263 ft | 7 kts | 340° |
| 2026-04-26 05:46 | -8.85034 | 13.23534 | 264 ft | 7 kts | 337° |
| 2026-04-26 05:46 | -8.84989 | 13.23516 | 264 ft | 7 kts | 338° |
| 2026-04-26 05:46 | -8.84950 | 13.23488 | 264 ft | 7 kts | 303° |
| 2026-04-26 05:47 | -8.84949 | 13.23440 | 264 ft | 7 kts | 255° |
| 2026-04-26 05:47 | -8.84978 | 13.23422 | 264 ft | 5 kts | 173° |
| 2026-04-26 05:47 | -8.85011 | 13.23437 | 264 ft | 5 kts | 156° |
| 2026-04-26 05:47 | -8.85032 | 13.23446 | 264 ft | 3 kts | 157° |
| 2026-04-26 05:48 | -8.85044 | 13.23451 | 264 ft | 0 kts | 157° |